﻿<?xml version="1.0" encoding="UTF-8" standalone="no" ?>
<gpx xmlns="http://www.topografix.com/GPX/1/1" creator="CompeGPS" version="1.1" xmlns:xsi="http://www.w3.org/2001/XMLSchema-instance" xsi:schemaLocation="http://www.topografix.com/GPX/1/1 http://www.topografix.com/GPX/1/1/gpx.xsd http://www.garmin.com/xmlschemas/GpxExtensions/v3 http://www.garmin.com/xmlschemas/GpxExtensionsv3.xsd http://www.garmin.com/xmlschemas/TrackPointExtension/v1 http://www.garmin.com/xmlschemas/TrackPointExtensionv1.xsd" xmlns:gpxtpx="http://www.garmin.com/xmlschemas/TrackPointExtension/v1">
  <metadata>
    <link href="http://www.compegps.com">
      <text>CompeGPS TEAM, SL</text>
    </link>
    <time>2018-12-03T19:22:45Z</time>
    <bounds maxlat="42.712685" maxlon="0.998498" minlat="42.696190" minlon="0.956345"/>
  </metadata>
  <trk>
    <name>baciver</name>
    <userMyTwoNav></userMyTwoNav>
    <serialNumber></serialNumber>
    <trkseg>
      <trkpt lat="42.706296" lon="0.956556">
        <ele>1869.0</ele>
        <time>2018-12-02T09:14:34Z</time>
      </trkpt>
      <trkpt lat="42.706134" lon="0.956658">
        <ele>1867.8</ele>
        <time>2018-12-02T09:14:57Z</time>
      </trkpt>
      <trkpt lat="42.706080" lon="0.956708">
        <ele>1867.8</ele>
        <time>2018-12-02T09:15:06Z</time>
      </trkpt>
      <trkpt lat="42.706082" lon="0.956837">
        <ele>1867.1</ele>
        <time>2018-12-02T09:15:15Z</time>
      </trkpt>
      <trkpt lat="42.706081" lon="0.956980">
        <ele>1866.7</ele>
        <time>2018-12-02T09:15:24Z</time>
      </trkpt>
      <trkpt lat="42.706156" lon="0.957116">
        <ele>1865.7</ele>
        <time>2018-12-02T09:15:32Z</time>
      </trkpt>
      <trkpt lat="42.706180" lon="0.957226">
        <ele>1865.0</ele>
        <time>2018-12-02T09:15:39Z</time>
      </trkpt>
      <trkpt lat="42.706197" lon="0.957346">
        <ele>1864.1</ele>
        <time>2018-12-02T09:15:47Z</time>
      </trkpt>
      <trkpt lat="42.706160" lon="0.957458">
        <ele>1862.8</ele>
        <time>2018-12-02T09:15:55Z</time>
      </trkpt>
      <trkpt lat="42.706069" lon="0.957509">
        <ele>1861.8</ele>
        <time>2018-12-02T09:16:01Z</time>
      </trkpt>
      <trkpt lat="42.705991" lon="0.957571">
        <ele>1860.0</ele>
        <time>2018-12-02T09:16:09Z</time>
      </trkpt>
      <trkpt lat="42.705937" lon="0.957670">
        <ele>1859.1</ele>
        <time>2018-12-02T09:16:18Z</time>
      </trkpt>
      <trkpt lat="42.705875" lon="0.957773">
        <ele>1858.9</ele>
        <time>2018-12-02T09:16:27Z</time>
      </trkpt>
      <trkpt lat="42.705822" lon="0.957879">
        <ele>1858.6</ele>
        <time>2018-12-02T09:16:35Z</time>
      </trkpt>
      <trkpt lat="42.705809" lon="0.958014">
        <ele>1858.9</ele>
        <time>2018-12-02T09:16:45Z</time>
      </trkpt>
      <trkpt lat="42.705774" lon="0.958132">
        <ele>1859.1</ele>
        <time>2018-12-02T09:16:55Z</time>
      </trkpt>
      <trkpt lat="42.705757" lon="0.958161">
        <ele>1858.8</ele>
        <time>2018-12-02T09:20:39Z</time>
      </trkpt>
      <trkpt lat="42.705713" lon="0.958281">
        <ele>1858.7</ele>
        <time>2018-12-02T09:20:50Z</time>
      </trkpt>
      <trkpt lat="42.705681" lon="0.958392">
        <ele>1858.8</ele>
        <time>2018-12-02T09:20:58Z</time>
      </trkpt>
      <trkpt lat="42.705656" lon="0.958512">
        <ele>1859.1</ele>
        <time>2018-12-02T09:21:08Z</time>
      </trkpt>
      <trkpt lat="42.705618" lon="0.958638">
        <ele>1859.8</ele>
        <time>2018-12-02T09:21:17Z</time>
      </trkpt>
      <trkpt lat="42.705568" lon="0.958748">
        <ele>1860.4</ele>
        <time>2018-12-02T09:21:25Z</time>
      </trkpt>
      <trkpt lat="42.705515" lon="0.958862">
        <ele>1860.7</ele>
        <time>2018-12-02T09:21:34Z</time>
      </trkpt>
      <trkpt lat="42.705465" lon="0.958965">
        <ele>1860.7</ele>
        <time>2018-12-02T09:21:44Z</time>
      </trkpt>
      <trkpt lat="42.705400" lon="0.959052">
        <ele>1861.3</ele>
        <time>2018-12-02T09:21:55Z</time>
      </trkpt>
      <trkpt lat="42.705341" lon="0.959151">
        <ele>1861.6</ele>
        <time>2018-12-02T09:22:07Z</time>
      </trkpt>
      <trkpt lat="42.705334" lon="0.959274">
        <ele>1862.3</ele>
        <time>2018-12-02T09:22:17Z</time>
      </trkpt>
      <trkpt lat="42.705328" lon="0.959395">
        <ele>1862.3</ele>
        <time>2018-12-02T09:22:26Z</time>
      </trkpt>
      <trkpt lat="42.705319" lon="0.959512">
        <ele>1863.2</ele>
        <time>2018-12-02T09:22:37Z</time>
      </trkpt>
      <trkpt lat="42.705308" lon="0.959637">
        <ele>1865.0</ele>
        <time>2018-12-02T09:22:48Z</time>
      </trkpt>
      <trkpt lat="42.705277" lon="0.959750">
        <ele>1867.1</ele>
        <time>2018-12-02T09:22:59Z</time>
      </trkpt>
      <trkpt lat="42.705240" lon="0.959864">
        <ele>1867.9</ele>
        <time>2018-12-02T09:23:10Z</time>
      </trkpt>
      <trkpt lat="42.705209" lon="0.959984">
        <ele>1869.0</ele>
        <time>2018-12-02T09:23:21Z</time>
      </trkpt>
      <trkpt lat="42.705173" lon="0.960099">
        <ele>1869.7</ele>
        <time>2018-12-02T09:23:32Z</time>
      </trkpt>
      <trkpt lat="42.705129" lon="0.960222">
        <ele>1870.2</ele>
        <time>2018-12-02T09:23:43Z</time>
      </trkpt>
      <trkpt lat="42.705064" lon="0.960305">
        <ele>1870.6</ele>
        <time>2018-12-02T09:23:53Z</time>
      </trkpt>
      <trkpt lat="42.704997" lon="0.960394">
        <ele>1870.8</ele>
        <time>2018-12-02T09:24:03Z</time>
      </trkpt>
      <trkpt lat="42.704926" lon="0.960493">
        <ele>1871.3</ele>
        <time>2018-12-02T09:24:13Z</time>
      </trkpt>
      <trkpt lat="42.704842" lon="0.960571">
        <ele>1871.8</ele>
        <time>2018-12-02T09:24:23Z</time>
      </trkpt>
      <trkpt lat="42.704775" lon="0.960654">
        <ele>1872.2</ele>
        <time>2018-12-02T09:24:33Z</time>
      </trkpt>
      <trkpt lat="42.704706" lon="0.960743">
        <ele>1872.8</ele>
        <time>2018-12-02T09:24:43Z</time>
      </trkpt>
      <trkpt lat="42.704631" lon="0.960827">
        <ele>1873.7</ele>
        <time>2018-12-02T09:24:53Z</time>
      </trkpt>
      <trkpt lat="42.704561" lon="0.960912">
        <ele>1874.8</ele>
        <time>2018-12-02T09:25:02Z</time>
      </trkpt>
      <trkpt lat="42.704482" lon="0.960994">
        <ele>1875.5</ele>
        <time>2018-12-02T09:25:12Z</time>
      </trkpt>
      <trkpt lat="42.704430" lon="0.961090">
        <ele>1876.2</ele>
        <time>2018-12-02T09:25:22Z</time>
      </trkpt>
      <trkpt lat="42.704399" lon="0.961222">
        <ele>1877.2</ele>
        <time>2018-12-02T09:25:32Z</time>
      </trkpt>
      <trkpt lat="42.704365" lon="0.961338">
        <ele>1878.7</ele>
        <time>2018-12-02T09:25:43Z</time>
      </trkpt>
      <trkpt lat="42.704335" lon="0.961456">
        <ele>1879.8</ele>
        <time>2018-12-02T09:25:54Z</time>
      </trkpt>
      <trkpt lat="42.704318" lon="0.961574">
        <ele>1882.2</ele>
        <time>2018-12-02T09:26:08Z</time>
      </trkpt>
      <trkpt lat="42.704340" lon="0.961703">
        <ele>1885.0</ele>
        <time>2018-12-02T09:26:22Z</time>
      </trkpt>
      <trkpt lat="42.704308" lon="0.961840">
        <ele>1887.1</ele>
        <time>2018-12-02T09:26:35Z</time>
      </trkpt>
      <trkpt lat="42.704245" lon="0.961933">
        <ele>1887.9</ele>
        <time>2018-12-02T09:26:45Z</time>
      </trkpt>
      <trkpt lat="42.704183" lon="0.962038">
        <ele>1888.8</ele>
        <time>2018-12-02T09:26:57Z</time>
      </trkpt>
      <trkpt lat="42.704127" lon="0.962136">
        <ele>1889.7</ele>
        <time>2018-12-02T09:27:07Z</time>
      </trkpt>
      <trkpt lat="42.704084" lon="0.962243">
        <ele>1891.1</ele>
        <time>2018-12-02T09:27:19Z</time>
      </trkpt>
      <trkpt lat="42.704068" lon="0.962363">
        <ele>1892.4</ele>
        <time>2018-12-02T09:27:31Z</time>
      </trkpt>
      <trkpt lat="42.704104" lon="0.962464">
        <ele>1894.8</ele>
        <time>2018-12-02T09:27:46Z</time>
      </trkpt>
      <trkpt lat="42.704121" lon="0.962584">
        <ele>1899.2</ele>
        <time>2018-12-02T09:28:01Z</time>
      </trkpt>
      <trkpt lat="42.704174" lon="0.962672">
        <ele>1902.8</ele>
        <time>2018-12-02T09:28:18Z</time>
      </trkpt>
      <trkpt lat="42.704144" lon="0.962784">
        <ele>1906.4</ele>
        <time>2018-12-02T09:28:35Z</time>
      </trkpt>
      <trkpt lat="42.704164" lon="0.962901">
        <ele>1910.0</ele>
        <time>2018-12-02T09:28:53Z</time>
      </trkpt>
      <trkpt lat="42.704116" lon="0.963016">
        <ele>1913.5</ele>
        <time>2018-12-02T09:29:12Z</time>
      </trkpt>
      <trkpt lat="42.704144" lon="0.963133">
        <ele>1916.3</ele>
        <time>2018-12-02T09:29:29Z</time>
      </trkpt>
      <trkpt lat="42.704161" lon="0.963248">
        <ele>1919.1</ele>
        <time>2018-12-02T09:29:45Z</time>
      </trkpt>
      <trkpt lat="42.704142" lon="0.963392">
        <ele>1920.8</ele>
        <time>2018-12-02T09:29:59Z</time>
      </trkpt>
      <trkpt lat="42.704100" lon="0.963509">
        <ele>1922.7</ele>
        <time>2018-12-02T09:30:13Z</time>
      </trkpt>
      <trkpt lat="42.704062" lon="0.963612">
        <ele>1923.9</ele>
        <time>2018-12-02T09:30:27Z</time>
      </trkpt>
      <trkpt lat="42.704056" lon="0.963708">
        <ele>1924.7</ele>
        <time>2018-12-02T09:32:34Z</time>
      </trkpt>
      <trkpt lat="42.704086" lon="0.963867">
        <ele>1926.0</ele>
        <time>2018-12-02T09:32:48Z</time>
      </trkpt>
      <trkpt lat="42.704055" lon="0.963962">
        <ele>1927.3</ele>
        <time>2018-12-02T09:33:04Z</time>
      </trkpt>
      <trkpt lat="42.704028" lon="0.964080">
        <ele>1927.7</ele>
        <time>2018-12-02T09:33:15Z</time>
      </trkpt>
      <trkpt lat="42.703996" lon="0.964183">
        <ele>1928.5</ele>
        <time>2018-12-02T09:33:40Z</time>
      </trkpt>
      <trkpt lat="42.703917" lon="0.964272">
        <ele>1927.8</ele>
        <time>2018-12-02T09:33:51Z</time>
      </trkpt>
      <trkpt lat="42.703866" lon="0.964374">
        <ele>1926.3</ele>
        <time>2018-12-02T09:34:02Z</time>
      </trkpt>
      <trkpt lat="42.703817" lon="0.964494">
        <ele>1925.3</ele>
        <time>2018-12-02T09:34:13Z</time>
      </trkpt>
      <trkpt lat="42.703787" lon="0.964612">
        <ele>1924.2</ele>
        <time>2018-12-02T09:34:23Z</time>
      </trkpt>
      <trkpt lat="42.703756" lon="0.964741">
        <ele>1923.5</ele>
        <time>2018-12-02T09:34:37Z</time>
      </trkpt>
      <trkpt lat="42.703718" lon="0.964849">
        <ele>1923.1</ele>
        <time>2018-12-02T09:34:57Z</time>
      </trkpt>
      <trkpt lat="42.703704" lon="0.964984">
        <ele>1923.3</ele>
        <time>2018-12-02T09:35:11Z</time>
      </trkpt>
      <trkpt lat="42.703644" lon="0.965075">
        <ele>1922.9</ele>
        <time>2018-12-02T09:35:28Z</time>
      </trkpt>
      <trkpt lat="42.703565" lon="0.965179">
        <ele>1923.0</ele>
        <time>2018-12-02T09:35:57Z</time>
      </trkpt>
      <trkpt lat="42.703545" lon="0.965247">
        <ele>1922.9</ele>
        <time>2018-12-02T09:36:25Z</time>
      </trkpt>
      <trkpt lat="42.703484" lon="0.965257">
        <ele>1923.7</ele>
        <time>2018-12-02T09:41:51Z</time>
      </trkpt>
      <trkpt lat="42.703424" lon="0.965346">
        <ele>1923.3</ele>
        <time>2018-12-02T09:42:07Z</time>
      </trkpt>
      <trkpt lat="42.703381" lon="0.965476">
        <ele>1923.2</ele>
        <time>2018-12-02T09:42:17Z</time>
      </trkpt>
      <trkpt lat="42.703338" lon="0.965596">
        <ele>1922.9</ele>
        <time>2018-12-02T09:42:25Z</time>
      </trkpt>
      <trkpt lat="42.703295" lon="0.965716">
        <ele>1922.3</ele>
        <time>2018-12-02T09:42:33Z</time>
      </trkpt>
      <trkpt lat="42.703260" lon="0.965852">
        <ele>1922.1</ele>
        <time>2018-12-02T09:42:40Z</time>
      </trkpt>
      <trkpt lat="42.703213" lon="0.965957">
        <ele>1921.7</ele>
        <time>2018-12-02T09:42:48Z</time>
      </trkpt>
      <trkpt lat="42.703171" lon="0.966076">
        <ele>1921.1</ele>
        <time>2018-12-02T09:42:56Z</time>
      </trkpt>
      <trkpt lat="42.703135" lon="0.966185">
        <ele>1920.9</ele>
        <time>2018-12-02T09:43:03Z</time>
      </trkpt>
      <trkpt lat="42.703108" lon="0.966286">
        <ele>1920.9</ele>
        <time>2018-12-02T09:43:09Z</time>
      </trkpt>
      <trkpt lat="42.703068" lon="0.966401">
        <ele>1921.1</ele>
        <time>2018-12-02T09:43:16Z</time>
      </trkpt>
      <trkpt lat="42.703038" lon="0.966513">
        <ele>1921.2</ele>
        <time>2018-12-02T09:43:23Z</time>
      </trkpt>
      <trkpt lat="42.703021" lon="0.966641">
        <ele>1921.5</ele>
        <time>2018-12-02T09:43:31Z</time>
      </trkpt>
      <trkpt lat="42.702971" lon="0.966765">
        <ele>1922.0</ele>
        <time>2018-12-02T09:43:41Z</time>
      </trkpt>
      <trkpt lat="42.702901" lon="0.966829">
        <ele>1921.9</ele>
        <time>2018-12-02T09:43:48Z</time>
      </trkpt>
      <trkpt lat="42.702858" lon="0.966931">
        <ele>1921.7</ele>
        <time>2018-12-02T09:43:55Z</time>
      </trkpt>
      <trkpt lat="42.702856" lon="0.967062">
        <ele>1921.4</ele>
        <time>2018-12-02T09:44:02Z</time>
      </trkpt>
      <trkpt lat="42.702848" lon="0.967178">
        <ele>1921.3</ele>
        <time>2018-12-02T09:44:10Z</time>
      </trkpt>
      <trkpt lat="42.702845" lon="0.967309">
        <ele>1921.7</ele>
        <time>2018-12-02T09:44:18Z</time>
      </trkpt>
      <trkpt lat="42.702838" lon="0.967430">
        <ele>1922.3</ele>
        <time>2018-12-02T09:44:26Z</time>
      </trkpt>
      <trkpt lat="42.702854" lon="0.967558">
        <ele>1922.4</ele>
        <time>2018-12-02T09:44:34Z</time>
      </trkpt>
      <trkpt lat="42.702871" lon="0.967678">
        <ele>1923.0</ele>
        <time>2018-12-02T09:44:42Z</time>
      </trkpt>
      <trkpt lat="42.702873" lon="0.967790">
        <ele>1923.9</ele>
        <time>2018-12-02T09:44:52Z</time>
      </trkpt>
      <trkpt lat="42.702911" lon="0.967936">
        <ele>1925.5</ele>
        <time>2018-12-02T09:45:08Z</time>
      </trkpt>
      <trkpt lat="42.702937" lon="0.968072">
        <ele>1927.3</ele>
        <time>2018-12-02T09:45:20Z</time>
      </trkpt>
      <trkpt lat="42.703007" lon="0.968193">
        <ele>1928.9</ele>
        <time>2018-12-02T09:45:33Z</time>
      </trkpt>
      <trkpt lat="42.703068" lon="0.968282">
        <ele>1930.1</ele>
        <time>2018-12-02T09:45:45Z</time>
      </trkpt>
      <trkpt lat="42.703124" lon="0.968370">
        <ele>1932.1</ele>
        <time>2018-12-02T09:45:57Z</time>
      </trkpt>
      <trkpt lat="42.703194" lon="0.968427">
        <ele>1935.0</ele>
        <time>2018-12-02T09:46:14Z</time>
      </trkpt>
      <trkpt lat="42.703247" lon="0.968522">
        <ele>1937.0</ele>
        <time>2018-12-02T09:46:30Z</time>
      </trkpt>
      <trkpt lat="42.703297" lon="0.968634">
        <ele>1938.6</ele>
        <time>2018-12-02T09:46:42Z</time>
      </trkpt>
      <trkpt lat="42.703315" lon="0.968734">
        <ele>1939.6</ele>
        <time>2018-12-02T09:47:05Z</time>
      </trkpt>
      <trkpt lat="42.703330" lon="0.968843">
        <ele>1940.2</ele>
        <time>2018-12-02T09:47:18Z</time>
      </trkpt>
      <trkpt lat="42.703345" lon="0.968986">
        <ele>1941.1</ele>
        <time>2018-12-02T09:47:29Z</time>
      </trkpt>
      <trkpt lat="42.703324" lon="0.969106">
        <ele>1941.6</ele>
        <time>2018-12-02T09:47:38Z</time>
      </trkpt>
      <trkpt lat="42.703237" lon="0.969164">
        <ele>1941.9</ele>
        <time>2018-12-02T09:47:50Z</time>
      </trkpt>
      <trkpt lat="42.703163" lon="0.969229">
        <ele>1943.8</ele>
        <time>2018-12-02T09:48:03Z</time>
      </trkpt>
      <trkpt lat="42.703069" lon="0.969295">
        <ele>1945.5</ele>
        <time>2018-12-02T09:48:16Z</time>
      </trkpt>
      <trkpt lat="42.702973" lon="0.969317">
        <ele>1947.7</ele>
        <time>2018-12-02T09:48:32Z</time>
      </trkpt>
      <trkpt lat="42.702888" lon="0.969390">
        <ele>1950.2</ele>
        <time>2018-12-02T09:48:47Z</time>
      </trkpt>
      <trkpt lat="42.702797" lon="0.969457">
        <ele>1953.5</ele>
        <time>2018-12-02T09:49:07Z</time>
      </trkpt>
      <trkpt lat="42.702741" lon="0.969562">
        <ele>1957.1</ele>
        <time>2018-12-02T09:49:25Z</time>
      </trkpt>
      <trkpt lat="42.702668" lon="0.969628">
        <ele>1960.5</ele>
        <time>2018-12-02T09:49:43Z</time>
      </trkpt>
      <trkpt lat="42.702612" lon="0.969733">
        <ele>1964.1</ele>
        <time>2018-12-02T09:50:03Z</time>
      </trkpt>
      <trkpt lat="42.702540" lon="0.969804">
        <ele>1966.4</ele>
        <time>2018-12-02T09:50:20Z</time>
      </trkpt>
      <trkpt lat="42.702456" lon="0.969860">
        <ele>1969.6</ele>
        <time>2018-12-02T09:50:40Z</time>
      </trkpt>
      <trkpt lat="42.702386" lon="0.969971">
        <ele>1971.1</ele>
        <time>2018-12-02T09:50:55Z</time>
      </trkpt>
      <trkpt lat="42.702332" lon="0.970083">
        <ele>1972.0</ele>
        <time>2018-12-02T09:51:06Z</time>
      </trkpt>
      <trkpt lat="42.702271" lon="0.970184">
        <ele>1973.0</ele>
        <time>2018-12-02T09:51:17Z</time>
      </trkpt>
      <trkpt lat="42.702200" lon="0.970271">
        <ele>1974.0</ele>
        <time>2018-12-02T09:51:29Z</time>
      </trkpt>
      <trkpt lat="42.702111" lon="0.970312">
        <ele>1975.4</ele>
        <time>2018-12-02T09:51:42Z</time>
      </trkpt>
      <trkpt lat="42.702037" lon="0.970386">
        <ele>1976.8</ele>
        <time>2018-12-02T09:51:55Z</time>
      </trkpt>
      <trkpt lat="42.701981" lon="0.970506">
        <ele>1977.7</ele>
        <time>2018-12-02T09:52:11Z</time>
      </trkpt>
      <trkpt lat="42.701959" lon="0.970638">
        <ele>1980.8</ele>
        <time>2018-12-02T09:52:30Z</time>
      </trkpt>
      <trkpt lat="42.701925" lon="0.970769">
        <ele>1983.7</ele>
        <time>2018-12-02T09:52:47Z</time>
      </trkpt>
      <trkpt lat="42.701876" lon="0.970889">
        <ele>1985.9</ele>
        <time>2018-12-02T09:53:01Z</time>
      </trkpt>
      <trkpt lat="42.701850" lon="0.971008">
        <ele>1988.6</ele>
        <time>2018-12-02T09:53:15Z</time>
      </trkpt>
      <trkpt lat="42.701832" lon="0.971112">
        <ele>1990.5</ele>
        <time>2018-12-02T09:53:29Z</time>
      </trkpt>
      <trkpt lat="42.701815" lon="0.971233">
        <ele>1993.0</ele>
        <time>2018-12-02T09:53:45Z</time>
      </trkpt>
      <trkpt lat="42.701780" lon="0.971338">
        <ele>1994.7</ele>
        <time>2018-12-02T09:53:58Z</time>
      </trkpt>
      <trkpt lat="42.701747" lon="0.971451">
        <ele>1996.4</ele>
        <time>2018-12-02T09:54:12Z</time>
      </trkpt>
      <trkpt lat="42.701714" lon="0.971587">
        <ele>1998.0</ele>
        <time>2018-12-02T09:54:26Z</time>
      </trkpt>
      <trkpt lat="42.701682" lon="0.971734">
        <ele>1999.8</ele>
        <time>2018-12-02T09:54:42Z</time>
      </trkpt>
      <trkpt lat="42.701618" lon="0.971861">
        <ele>2002.3</ele>
        <time>2018-12-02T09:55:47Z</time>
      </trkpt>
      <trkpt lat="42.701567" lon="0.971950">
        <ele>2003.1</ele>
        <time>2018-12-02T09:55:59Z</time>
      </trkpt>
      <trkpt lat="42.701489" lon="0.972052">
        <ele>2004.6</ele>
        <time>2018-12-02T09:56:12Z</time>
      </trkpt>
      <trkpt lat="42.701403" lon="0.972130">
        <ele>2005.4</ele>
        <time>2018-12-02T09:56:24Z</time>
      </trkpt>
      <trkpt lat="42.701324" lon="0.972229">
        <ele>2007.1</ele>
        <time>2018-12-02T09:56:38Z</time>
      </trkpt>
      <trkpt lat="42.701302" lon="0.972347">
        <ele>2008.3</ele>
        <time>2018-12-02T09:56:50Z</time>
      </trkpt>
      <trkpt lat="42.701290" lon="0.972473">
        <ele>2009.7</ele>
        <time>2018-12-02T09:57:03Z</time>
      </trkpt>
      <trkpt lat="42.701282" lon="0.972601">
        <ele>2010.8</ele>
        <time>2018-12-02T09:57:17Z</time>
      </trkpt>
      <trkpt lat="42.701278" lon="0.972753">
        <ele>2011.8</ele>
        <time>2018-12-02T09:57:29Z</time>
      </trkpt>
      <trkpt lat="42.701277" lon="0.972899">
        <ele>2012.2</ele>
        <time>2018-12-02T09:57:42Z</time>
      </trkpt>
      <trkpt lat="42.701301" lon="0.973024">
        <ele>2013.4</ele>
        <time>2018-12-02T09:57:56Z</time>
      </trkpt>
      <trkpt lat="42.701321" lon="0.973137">
        <ele>2014.9</ele>
        <time>2018-12-02T09:58:09Z</time>
      </trkpt>
      <trkpt lat="42.701328" lon="0.973273">
        <ele>2015.7</ele>
        <time>2018-12-02T09:58:21Z</time>
      </trkpt>
      <trkpt lat="42.701360" lon="0.973409">
        <ele>2015.9</ele>
        <time>2018-12-02T09:58:31Z</time>
      </trkpt>
      <trkpt lat="42.701405" lon="0.973563">
        <ele>2016.4</ele>
        <time>2018-12-02T09:58:43Z</time>
      </trkpt>
      <trkpt lat="42.701457" lon="0.973681">
        <ele>2016.5</ele>
        <time>2018-12-02T09:58:56Z</time>
      </trkpt>
      <trkpt lat="42.701522" lon="0.973783">
        <ele>2017.1</ele>
        <time>2018-12-02T09:59:09Z</time>
      </trkpt>
      <trkpt lat="42.701607" lon="0.973872">
        <ele>2017.9</ele>
        <time>2018-12-02T09:59:22Z</time>
      </trkpt>
      <trkpt lat="42.701659" lon="0.973928">
        <ele>2018.8</ele>
        <time>2018-12-02T09:59:34Z</time>
      </trkpt>
      <trkpt lat="42.701722" lon="0.974027">
        <ele>2019.7</ele>
        <time>2018-12-02T09:59:48Z</time>
      </trkpt>
      <trkpt lat="42.701755" lon="0.974145">
        <ele>2021.8</ele>
        <time>2018-12-02T10:00:06Z</time>
      </trkpt>
      <trkpt lat="42.701753" lon="0.974267">
        <ele>2024.1</ele>
        <time>2018-12-02T10:00:22Z</time>
      </trkpt>
      <trkpt lat="42.701744" lon="0.974392">
        <ele>2026.0</ele>
        <time>2018-12-02T10:00:38Z</time>
      </trkpt>
      <trkpt lat="42.701715" lon="0.974519">
        <ele>2028.2</ele>
        <time>2018-12-02T10:00:55Z</time>
      </trkpt>
      <trkpt lat="42.701672" lon="0.974647">
        <ele>2031.1</ele>
        <time>2018-12-02T10:01:52Z</time>
      </trkpt>
      <trkpt lat="42.701637" lon="0.974759">
        <ele>2032.8</ele>
        <time>2018-12-02T10:02:10Z</time>
      </trkpt>
      <trkpt lat="42.701595" lon="0.974884">
        <ele>2035.5</ele>
        <time>2018-12-02T10:02:30Z</time>
      </trkpt>
      <trkpt lat="42.701555" lon="0.974992">
        <ele>2037.8</ele>
        <time>2018-12-02T10:02:47Z</time>
      </trkpt>
      <trkpt lat="42.701541" lon="0.975103">
        <ele>2040.5</ele>
        <time>2018-12-02T10:03:05Z</time>
      </trkpt>
      <trkpt lat="42.701516" lon="0.975207">
        <ele>2043.1</ele>
        <time>2018-12-02T10:03:23Z</time>
      </trkpt>
      <trkpt lat="42.701494" lon="0.975321">
        <ele>2046.5</ele>
        <time>2018-12-02T10:03:41Z</time>
      </trkpt>
      <trkpt lat="42.701464" lon="0.975435">
        <ele>2049.6</ele>
        <time>2018-12-02T10:04:01Z</time>
      </trkpt>
      <trkpt lat="42.701452" lon="0.975549">
        <ele>2052.9</ele>
        <time>2018-12-02T10:04:19Z</time>
      </trkpt>
      <trkpt lat="42.701461" lon="0.975658">
        <ele>2056.2</ele>
        <time>2018-12-02T10:04:40Z</time>
      </trkpt>
      <trkpt lat="42.701394" lon="0.975754">
        <ele>2059.6</ele>
        <time>2018-12-02T10:05:01Z</time>
      </trkpt>
      <trkpt lat="42.701282" lon="0.975786">
        <ele>2062.4</ele>
        <time>2018-12-02T10:05:16Z</time>
      </trkpt>
      <trkpt lat="42.701195" lon="0.975785">
        <ele>2064.3</ele>
        <time>2018-12-02T10:05:31Z</time>
      </trkpt>
      <trkpt lat="42.701157" lon="0.975886">
        <ele>2066.4</ele>
        <time>2018-12-02T10:05:52Z</time>
      </trkpt>
      <trkpt lat="42.701107" lon="0.975976">
        <ele>2068.4</ele>
        <time>2018-12-02T10:06:28Z</time>
      </trkpt>
      <trkpt lat="42.701033" lon="0.976069">
        <ele>2070.7</ele>
        <time>2018-12-02T10:06:45Z</time>
      </trkpt>
      <trkpt lat="42.700964" lon="0.976149">
        <ele>2073.4</ele>
        <time>2018-12-02T10:07:02Z</time>
      </trkpt>
      <trkpt lat="42.700915" lon="0.976286">
        <ele>2076.3</ele>
        <time>2018-12-02T10:07:22Z</time>
      </trkpt>
      <trkpt lat="42.700877" lon="0.976402">
        <ele>2078.1</ele>
        <time>2018-12-02T10:07:37Z</time>
      </trkpt>
      <trkpt lat="42.700820" lon="0.976514">
        <ele>2080.7</ele>
        <time>2018-12-02T10:07:53Z</time>
      </trkpt>
      <trkpt lat="42.700813" lon="0.976599">
        <ele>2082.1</ele>
        <time>2018-12-02T10:09:43Z</time>
      </trkpt>
      <trkpt lat="42.700835" lon="0.976719">
        <ele>2082.9</ele>
        <time>2018-12-02T10:10:17Z</time>
      </trkpt>
      <trkpt lat="42.700923" lon="0.976786">
        <ele>2083.3</ele>
        <time>2018-12-02T10:10:31Z</time>
      </trkpt>
      <trkpt lat="42.701011" lon="0.976846">
        <ele>2084.6</ele>
        <time>2018-12-02T10:10:57Z</time>
      </trkpt>
      <trkpt lat="42.701101" lon="0.976911">
        <ele>2087.2</ele>
        <time>2018-12-02T10:11:16Z</time>
      </trkpt>
      <trkpt lat="42.701189" lon="0.976959">
        <ele>2090.2</ele>
        <time>2018-12-02T10:11:35Z</time>
      </trkpt>
      <trkpt lat="42.701302" lon="0.976950">
        <ele>2092.4</ele>
        <time>2018-12-02T10:11:51Z</time>
      </trkpt>
      <trkpt lat="42.701407" lon="0.977001">
        <ele>2094.0</ele>
        <time>2018-12-02T10:12:06Z</time>
      </trkpt>
      <trkpt lat="42.701503" lon="0.977013">
        <ele>2096.9</ele>
        <time>2018-12-02T10:12:28Z</time>
      </trkpt>
      <trkpt lat="42.701588" lon="0.977083">
        <ele>2100.4</ele>
        <time>2018-12-02T10:12:49Z</time>
      </trkpt>
      <trkpt lat="42.701623" lon="0.977211">
        <ele>2103.6</ele>
        <time>2018-12-02T10:13:09Z</time>
      </trkpt>
      <trkpt lat="42.701631" lon="0.977350">
        <ele>2106.0</ele>
        <time>2018-12-02T10:13:28Z</time>
      </trkpt>
      <trkpt lat="42.701652" lon="0.977476">
        <ele>2108.7</ele>
        <time>2018-12-02T10:13:45Z</time>
      </trkpt>
      <trkpt lat="42.701667" lon="0.977617">
        <ele>2111.3</ele>
        <time>2018-12-02T10:14:01Z</time>
      </trkpt>
      <trkpt lat="42.701663" lon="0.977749">
        <ele>2113.4</ele>
        <time>2018-12-02T10:14:17Z</time>
      </trkpt>
      <trkpt lat="42.701645" lon="0.977884">
        <ele>2115.6</ele>
        <time>2018-12-02T10:14:34Z</time>
      </trkpt>
      <trkpt lat="42.701591" lon="0.977987">
        <ele>2116.7</ele>
        <time>2018-12-02T10:14:47Z</time>
      </trkpt>
      <trkpt lat="42.701526" lon="0.978077">
        <ele>2116.9</ele>
        <time>2018-12-02T10:15:02Z</time>
      </trkpt>
      <trkpt lat="42.701449" lon="0.978172">
        <ele>2117.2</ele>
        <time>2018-12-02T10:15:13Z</time>
      </trkpt>
      <trkpt lat="42.701376" lon="0.978239">
        <ele>2117.6</ele>
        <time>2018-12-02T10:15:22Z</time>
      </trkpt>
      <trkpt lat="42.701312" lon="0.978331">
        <ele>2118.5</ele>
        <time>2018-12-02T10:15:33Z</time>
      </trkpt>
      <trkpt lat="42.701319" lon="0.978449">
        <ele>2119.3</ele>
        <time>2018-12-02T10:15:44Z</time>
      </trkpt>
      <trkpt lat="42.701306" lon="0.978572">
        <ele>2119.3</ele>
        <time>2018-12-02T10:15:52Z</time>
      </trkpt>
      <trkpt lat="42.701259" lon="0.978688">
        <ele>2118.6</ele>
        <time>2018-12-02T10:16:00Z</time>
      </trkpt>
      <trkpt lat="42.701208" lon="0.978789">
        <ele>2118.3</ele>
        <time>2018-12-02T10:16:08Z</time>
      </trkpt>
      <trkpt lat="42.701220" lon="0.978889">
        <ele>2118.9</ele>
        <time>2018-12-02T10:16:29Z</time>
      </trkpt>
      <trkpt lat="42.701211" lon="0.979032">
        <ele>2118.8</ele>
        <time>2018-12-02T10:16:39Z</time>
      </trkpt>
      <trkpt lat="42.701153" lon="0.979155">
        <ele>2119.0</ele>
        <time>2018-12-02T10:16:47Z</time>
      </trkpt>
      <trkpt lat="42.701112" lon="0.979264">
        <ele>2119.1</ele>
        <time>2018-12-02T10:16:54Z</time>
      </trkpt>
      <trkpt lat="42.701048" lon="0.979338">
        <ele>2119.3</ele>
        <time>2018-12-02T10:17:00Z</time>
      </trkpt>
      <trkpt lat="42.700986" lon="0.979438">
        <ele>2119.5</ele>
        <time>2018-12-02T10:17:10Z</time>
      </trkpt>
      <trkpt lat="42.700974" lon="0.979560">
        <ele>2119.9</ele>
        <time>2018-12-02T10:17:20Z</time>
      </trkpt>
      <trkpt lat="42.700980" lon="0.979676">
        <ele>2120.0</ele>
        <time>2018-12-02T10:17:28Z</time>
      </trkpt>
      <trkpt lat="42.700950" lon="0.979812">
        <ele>2119.8</ele>
        <time>2018-12-02T10:17:44Z</time>
      </trkpt>
      <trkpt lat="42.700910" lon="0.979930">
        <ele>2120.1</ele>
        <time>2018-12-02T10:17:52Z</time>
      </trkpt>
      <trkpt lat="42.700868" lon="0.980034">
        <ele>2119.9</ele>
        <time>2018-12-02T10:18:00Z</time>
      </trkpt>
      <trkpt lat="42.700818" lon="0.980150">
        <ele>2120.0</ele>
        <time>2018-12-02T10:18:10Z</time>
      </trkpt>
      <trkpt lat="42.700760" lon="0.980253">
        <ele>2119.9</ele>
        <time>2018-12-02T10:18:19Z</time>
      </trkpt>
      <trkpt lat="42.700687" lon="0.980336">
        <ele>2120.1</ele>
        <time>2018-12-02T10:18:29Z</time>
      </trkpt>
      <trkpt lat="42.700595" lon="0.980364">
        <ele>2119.9</ele>
        <time>2018-12-02T10:18:39Z</time>
      </trkpt>
      <trkpt lat="42.700511" lon="0.980424">
        <ele>2120.3</ele>
        <time>2018-12-02T10:18:48Z</time>
      </trkpt>
      <trkpt lat="42.700480" lon="0.980554">
        <ele>2120.8</ele>
        <time>2018-12-02T10:18:58Z</time>
      </trkpt>
      <trkpt lat="42.700420" lon="0.980666">
        <ele>2120.9</ele>
        <time>2018-12-02T10:19:07Z</time>
      </trkpt>
      <trkpt lat="42.700349" lon="0.980765">
        <ele>2120.9</ele>
        <time>2018-12-02T10:19:19Z</time>
      </trkpt>
      <trkpt lat="42.700257" lon="0.980851">
        <ele>2121.7</ele>
        <time>2018-12-02T10:19:32Z</time>
      </trkpt>
      <trkpt lat="42.700164" lon="0.980914">
        <ele>2122.6</ele>
        <time>2018-12-02T10:19:44Z</time>
      </trkpt>
      <trkpt lat="42.700084" lon="0.980961">
        <ele>2123.9</ele>
        <time>2018-12-02T10:19:58Z</time>
      </trkpt>
      <trkpt lat="42.699990" lon="0.980994">
        <ele>2125.3</ele>
        <time>2018-12-02T10:20:11Z</time>
      </trkpt>
      <trkpt lat="42.699894" lon="0.981022">
        <ele>2125.9</ele>
        <time>2018-12-02T10:20:22Z</time>
      </trkpt>
      <trkpt lat="42.699778" lon="0.981010">
        <ele>2126.7</ele>
        <time>2018-12-02T10:20:35Z</time>
      </trkpt>
      <trkpt lat="42.699679" lon="0.981048">
        <ele>2127.4</ele>
        <time>2018-12-02T10:20:48Z</time>
      </trkpt>
      <trkpt lat="42.699571" lon="0.981058">
        <ele>2127.9</ele>
        <time>2018-12-02T10:20:58Z</time>
      </trkpt>
      <trkpt lat="42.699502" lon="0.981142">
        <ele>2128.4</ele>
        <time>2018-12-02T10:21:09Z</time>
      </trkpt>
      <trkpt lat="42.699416" lon="0.981188">
        <ele>2129.4</ele>
        <time>2018-12-02T10:21:19Z</time>
      </trkpt>
      <trkpt lat="42.699334" lon="0.981247">
        <ele>2130.3</ele>
        <time>2018-12-02T10:21:32Z</time>
      </trkpt>
      <trkpt lat="42.699277" lon="0.981326">
        <ele>2130.6</ele>
        <time>2018-12-02T10:21:45Z</time>
      </trkpt>
      <trkpt lat="42.699207" lon="0.981427">
        <ele>2131.1</ele>
        <time>2018-12-02T10:21:56Z</time>
      </trkpt>
      <trkpt lat="42.699126" lon="0.981438">
        <ele>2131.9</ele>
        <time>2018-12-02T10:22:09Z</time>
      </trkpt>
      <trkpt lat="42.699104" lon="0.981514">
        <ele>2132.5</ele>
        <time>2018-12-02T10:24:44Z</time>
      </trkpt>
      <trkpt lat="42.699059" lon="0.981627">
        <ele>2132.9</ele>
        <time>2018-12-02T10:24:57Z</time>
      </trkpt>
      <trkpt lat="42.698975" lon="0.981704">
        <ele>2133.7</ele>
        <time>2018-12-02T10:25:11Z</time>
      </trkpt>
      <trkpt lat="42.698965" lon="0.981756">
        <ele>2133.2</ele>
        <time>2018-12-02T10:25:48Z</time>
      </trkpt>
      <trkpt lat="42.698955" lon="0.981888">
        <ele>2134.8</ele>
        <time>2018-12-02T10:26:03Z</time>
      </trkpt>
      <trkpt lat="42.698917" lon="0.982011">
        <ele>2136.8</ele>
        <time>2018-12-02T10:26:16Z</time>
      </trkpt>
      <trkpt lat="42.698859" lon="0.982132">
        <ele>2137.4</ele>
        <time>2018-12-02T10:26:28Z</time>
      </trkpt>
      <trkpt lat="42.698774" lon="0.982177">
        <ele>2136.9</ele>
        <time>2018-12-02T10:26:40Z</time>
      </trkpt>
      <trkpt lat="42.698743" lon="0.982258">
        <ele>2136.5</ele>
        <time>2018-12-02T10:26:59Z</time>
      </trkpt>
      <trkpt lat="42.698664" lon="0.982353">
        <ele>2136.5</ele>
        <time>2018-12-02T10:27:15Z</time>
      </trkpt>
      <trkpt lat="42.698631" lon="0.982437">
        <ele>2135.6</ele>
        <time>2018-12-02T10:27:31Z</time>
      </trkpt>
      <trkpt lat="42.698553" lon="0.982515">
        <ele>2135.5</ele>
        <time>2018-12-02T10:27:44Z</time>
      </trkpt>
      <trkpt lat="42.698499" lon="0.982628">
        <ele>2134.7</ele>
        <time>2018-12-02T10:27:58Z</time>
      </trkpt>
      <trkpt lat="42.698421" lon="0.982729">
        <ele>2133.5</ele>
        <time>2018-12-02T10:28:12Z</time>
      </trkpt>
      <trkpt lat="42.698363" lon="0.982839">
        <ele>2131.8</ele>
        <time>2018-12-02T10:28:24Z</time>
      </trkpt>
      <trkpt lat="42.698333" lon="0.982954">
        <ele>2130.4</ele>
        <time>2018-12-02T10:28:37Z</time>
      </trkpt>
      <trkpt lat="42.698262" lon="0.983025">
        <ele>2129.6</ele>
        <time>2018-12-02T10:28:53Z</time>
      </trkpt>
      <trkpt lat="42.698189" lon="0.983130">
        <ele>2129.1</ele>
        <time>2018-12-02T10:29:08Z</time>
      </trkpt>
      <trkpt lat="42.698197" lon="0.983235">
        <ele>2130.7</ele>
        <time>2018-12-02T10:29:28Z</time>
      </trkpt>
      <trkpt lat="42.698168" lon="0.983337">
        <ele>2133.6</ele>
        <time>2018-12-02T10:30:07Z</time>
      </trkpt>
      <trkpt lat="42.698106" lon="0.983413">
        <ele>2135.7</ele>
        <time>2018-12-02T10:30:46Z</time>
      </trkpt>
      <trkpt lat="42.698080" lon="0.983504">
        <ele>2137.6</ele>
        <time>2018-12-02T10:31:15Z</time>
      </trkpt>
      <trkpt lat="42.698102" lon="0.983591">
        <ele>2139.9</ele>
        <time>2018-12-02T10:31:33Z</time>
      </trkpt>
      <trkpt lat="42.698079" lon="0.983695">
        <ele>2142.1</ele>
        <time>2018-12-02T10:31:51Z</time>
      </trkpt>
      <trkpt lat="42.698087" lon="0.983803">
        <ele>2144.2</ele>
        <time>2018-12-02T10:32:11Z</time>
      </trkpt>
      <trkpt lat="42.698086" lon="0.983941">
        <ele>2146.0</ele>
        <time>2018-12-02T10:32:29Z</time>
      </trkpt>
      <trkpt lat="42.698026" lon="0.984030">
        <ele>2147.5</ele>
        <time>2018-12-02T10:32:46Z</time>
      </trkpt>
      <trkpt lat="42.697993" lon="0.984145">
        <ele>2149.6</ele>
        <time>2018-12-02T10:33:04Z</time>
      </trkpt>
      <trkpt lat="42.697937" lon="0.984247">
        <ele>2151.1</ele>
        <time>2018-12-02T10:33:21Z</time>
      </trkpt>
      <trkpt lat="42.697864" lon="0.984351">
        <ele>2152.1</ele>
        <time>2018-12-02T10:33:37Z</time>
      </trkpt>
      <trkpt lat="42.697808" lon="0.984466">
        <ele>2152.8</ele>
        <time>2018-12-02T10:33:52Z</time>
      </trkpt>
      <trkpt lat="42.697737" lon="0.984549">
        <ele>2154.0</ele>
        <time>2018-12-02T10:34:08Z</time>
      </trkpt>
      <trkpt lat="42.697658" lon="0.984608">
        <ele>2156.5</ele>
        <time>2018-12-02T10:34:34Z</time>
      </trkpt>
      <trkpt lat="42.697616" lon="0.984727">
        <ele>2158.6</ele>
        <time>2018-12-02T10:34:53Z</time>
      </trkpt>
      <trkpt lat="42.697576" lon="0.984846">
        <ele>2159.4</ele>
        <time>2018-12-02T10:35:09Z</time>
      </trkpt>
      <trkpt lat="42.697545" lon="0.984971">
        <ele>2160.9</ele>
        <time>2018-12-02T10:35:26Z</time>
      </trkpt>
      <trkpt lat="42.697501" lon="0.985075">
        <ele>2163.0</ele>
        <time>2018-12-02T10:35:44Z</time>
      </trkpt>
      <trkpt lat="42.697451" lon="0.985204">
        <ele>2165.1</ele>
        <time>2018-12-02T10:36:04Z</time>
      </trkpt>
      <trkpt lat="42.697460" lon="0.985324">
        <ele>2167.1</ele>
        <time>2018-12-02T10:36:24Z</time>
      </trkpt>
      <trkpt lat="42.697463" lon="0.985446">
        <ele>2169.6</ele>
        <time>2018-12-02T10:36:44Z</time>
      </trkpt>
      <trkpt lat="42.697467" lon="0.985550">
        <ele>2172.2</ele>
        <time>2018-12-02T10:37:26Z</time>
      </trkpt>
      <trkpt lat="42.697491" lon="0.985665">
        <ele>2175.5</ele>
        <time>2018-12-02T10:37:52Z</time>
      </trkpt>
      <trkpt lat="42.697515" lon="0.985781">
        <ele>2177.4</ele>
        <time>2018-12-02T10:38:10Z</time>
      </trkpt>
      <trkpt lat="42.697482" lon="0.985914">
        <ele>2178.9</ele>
        <time>2018-12-02T10:38:27Z</time>
      </trkpt>
      <trkpt lat="42.697428" lon="0.985985">
        <ele>2180.3</ele>
        <time>2018-12-02T10:38:49Z</time>
      </trkpt>
      <trkpt lat="42.697398" lon="0.986106">
        <ele>2181.1</ele>
        <time>2018-12-02T10:39:03Z</time>
      </trkpt>
      <trkpt lat="42.697366" lon="0.986225">
        <ele>2182.0</ele>
        <time>2018-12-02T10:39:17Z</time>
      </trkpt>
      <trkpt lat="42.697347" lon="0.986359">
        <ele>2182.8</ele>
        <time>2018-12-02T10:39:35Z</time>
      </trkpt>
      <trkpt lat="42.697311" lon="0.986483">
        <ele>2184.1</ele>
        <time>2018-12-02T10:39:51Z</time>
      </trkpt>
      <trkpt lat="42.697301" lon="0.986603">
        <ele>2185.2</ele>
        <time>2018-12-02T10:40:07Z</time>
      </trkpt>
      <trkpt lat="42.697249" lon="0.986718">
        <ele>2186.6</ele>
        <time>2018-12-02T10:40:27Z</time>
      </trkpt>
      <trkpt lat="42.697172" lon="0.986802">
        <ele>2187.6</ele>
        <time>2018-12-02T10:40:44Z</time>
      </trkpt>
      <trkpt lat="42.697105" lon="0.986902">
        <ele>2189.4</ele>
        <time>2018-12-02T10:41:03Z</time>
      </trkpt>
      <trkpt lat="42.697078" lon="0.987022">
        <ele>2192.0</ele>
        <time>2018-12-02T10:41:27Z</time>
      </trkpt>
      <trkpt lat="42.697064" lon="0.987142">
        <ele>2194.6</ele>
        <time>2018-12-02T10:41:56Z</time>
      </trkpt>
      <trkpt lat="42.697037" lon="0.987252">
        <ele>2197.9</ele>
        <time>2018-12-02T10:42:19Z</time>
      </trkpt>
      <trkpt lat="42.697077" lon="0.987365">
        <ele>2201.6</ele>
        <time>2018-12-02T10:42:42Z</time>
      </trkpt>
      <trkpt lat="42.697091" lon="0.987497">
        <ele>2204.2</ele>
        <time>2018-12-02T10:43:04Z</time>
      </trkpt>
      <trkpt lat="42.697115" lon="0.987616">
        <ele>2205.7</ele>
        <time>2018-12-02T10:43:23Z</time>
      </trkpt>
      <trkpt lat="42.697133" lon="0.987743">
        <ele>2208.3</ele>
        <time>2018-12-02T10:43:42Z</time>
      </trkpt>
      <trkpt lat="42.697097" lon="0.987849">
        <ele>2210.3</ele>
        <time>2018-12-02T10:44:03Z</time>
      </trkpt>
      <trkpt lat="42.697043" lon="0.987942">
        <ele>2212.0</ele>
        <time>2018-12-02T10:44:27Z</time>
      </trkpt>
      <trkpt lat="42.696976" lon="0.988038">
        <ele>2213.3</ele>
        <time>2018-12-02T10:44:58Z</time>
      </trkpt>
      <trkpt lat="42.696904" lon="0.988142">
        <ele>2214.4</ele>
        <time>2018-12-02T10:45:22Z</time>
      </trkpt>
      <trkpt lat="42.696877" lon="0.988256">
        <ele>2215.5</ele>
        <time>2018-12-02T10:45:39Z</time>
      </trkpt>
      <trkpt lat="42.696819" lon="0.988364">
        <ele>2216.9</ele>
        <time>2018-12-02T10:45:56Z</time>
      </trkpt>
      <trkpt lat="42.696761" lon="0.988465">
        <ele>2218.1</ele>
        <time>2018-12-02T10:46:14Z</time>
      </trkpt>
      <trkpt lat="42.696711" lon="0.988574">
        <ele>2218.6</ele>
        <time>2018-12-02T10:46:37Z</time>
      </trkpt>
      <trkpt lat="42.696659" lon="0.988691">
        <ele>2218.9</ele>
        <time>2018-12-02T10:46:54Z</time>
      </trkpt>
      <trkpt lat="42.696600" lon="0.988803">
        <ele>2219.7</ele>
        <time>2018-12-02T10:47:12Z</time>
      </trkpt>
      <trkpt lat="42.696579" lon="0.988918">
        <ele>2221.8</ele>
        <time>2018-12-02T10:47:30Z</time>
      </trkpt>
      <trkpt lat="42.696578" lon="0.989036">
        <ele>2224.3</ele>
        <time>2018-12-02T10:47:53Z</time>
      </trkpt>
      <trkpt lat="42.696565" lon="0.989167">
        <ele>2228.1</ele>
        <time>2018-12-02T10:48:20Z</time>
      </trkpt>
      <trkpt lat="42.696565" lon="0.989292">
        <ele>2231.9</ele>
        <time>2018-12-02T10:48:47Z</time>
      </trkpt>
      <trkpt lat="42.696582" lon="0.989419">
        <ele>2234.9</ele>
        <time>2018-12-02T10:49:08Z</time>
      </trkpt>
      <trkpt lat="42.696577" lon="0.989542">
        <ele>2237.4</ele>
        <time>2018-12-02T10:49:26Z</time>
      </trkpt>
      <trkpt lat="42.696565" lon="0.989663">
        <ele>2239.5</ele>
        <time>2018-12-02T10:49:44Z</time>
      </trkpt>
      <trkpt lat="42.696579" lon="0.989791">
        <ele>2241.3</ele>
        <time>2018-12-02T10:50:00Z</time>
      </trkpt>
      <trkpt lat="42.696574" lon="0.989916">
        <ele>2242.3</ele>
        <time>2018-12-02T10:50:15Z</time>
      </trkpt>
      <trkpt lat="42.696529" lon="0.989984">
        <ele>2244.0</ele>
        <time>2018-12-02T10:50:50Z</time>
      </trkpt>
      <trkpt lat="42.696476" lon="0.990090">
        <ele>2244.9</ele>
        <time>2018-12-02T10:51:06Z</time>
      </trkpt>
      <trkpt lat="42.696415" lon="0.990193">
        <ele>2246.4</ele>
        <time>2018-12-02T10:51:21Z</time>
      </trkpt>
      <trkpt lat="42.696366" lon="0.990303">
        <ele>2247.7</ele>
        <time>2018-12-02T10:51:37Z</time>
      </trkpt>
      <trkpt lat="42.696318" lon="0.990408">
        <ele>2248.4</ele>
        <time>2018-12-02T10:51:51Z</time>
      </trkpt>
      <trkpt lat="42.696278" lon="0.990529">
        <ele>2249.4</ele>
        <time>2018-12-02T10:52:07Z</time>
      </trkpt>
      <trkpt lat="42.696233" lon="0.990629">
        <ele>2251.0</ele>
        <time>2018-12-02T10:52:24Z</time>
      </trkpt>
      <trkpt lat="42.696210" lon="0.990746">
        <ele>2253.5</ele>
        <time>2018-12-02T10:52:46Z</time>
      </trkpt>
      <trkpt lat="42.696206" lon="0.990847">
        <ele>2255.9</ele>
        <time>2018-12-02T10:53:26Z</time>
      </trkpt>
      <trkpt lat="42.696190" lon="0.990981">
        <ele>2258.7</ele>
        <time>2018-12-02T10:53:48Z</time>
      </trkpt>
      <trkpt lat="42.696213" lon="0.991098">
        <ele>2261.1</ele>
        <time>2018-12-02T10:54:06Z</time>
      </trkpt>
      <trkpt lat="42.696221" lon="0.991228">
        <ele>2263.6</ele>
        <time>2018-12-02T10:54:26Z</time>
      </trkpt>
      <trkpt lat="42.696232" lon="0.991361">
        <ele>2265.4</ele>
        <time>2018-12-02T10:54:48Z</time>
      </trkpt>
      <trkpt lat="42.696241" lon="0.991487">
        <ele>2267.5</ele>
        <time>2018-12-02T10:55:12Z</time>
      </trkpt>
      <trkpt lat="42.696268" lon="0.991614">
        <ele>2268.2</ele>
        <time>2018-12-02T10:55:28Z</time>
      </trkpt>
      <trkpt lat="42.696263" lon="0.991747">
        <ele>2269.0</ele>
        <time>2018-12-02T10:55:43Z</time>
      </trkpt>
      <trkpt lat="42.696269" lon="0.991867">
        <ele>2271.4</ele>
        <time>2018-12-02T10:57:41Z</time>
      </trkpt>
      <trkpt lat="42.696273" lon="0.992000">
        <ele>2272.7</ele>
        <time>2018-12-02T10:57:56Z</time>
      </trkpt>
      <trkpt lat="42.696262" lon="0.992123">
        <ele>2273.9</ele>
        <time>2018-12-02T10:58:09Z</time>
      </trkpt>
      <trkpt lat="42.696254" lon="0.992250">
        <ele>2274.8</ele>
        <time>2018-12-02T10:58:21Z</time>
      </trkpt>
      <trkpt lat="42.696268" lon="0.992381">
        <ele>2275.9</ele>
        <time>2018-12-02T10:58:34Z</time>
      </trkpt>
      <trkpt lat="42.696281" lon="0.992512">
        <ele>2276.4</ele>
        <time>2018-12-02T10:58:49Z</time>
      </trkpt>
      <trkpt lat="42.696301" lon="0.992646">
        <ele>2276.3</ele>
        <time>2018-12-02T10:59:01Z</time>
      </trkpt>
      <trkpt lat="42.696339" lon="0.992748">
        <ele>2276.0</ele>
        <time>2018-12-02T10:59:15Z</time>
      </trkpt>
      <trkpt lat="42.696395" lon="0.992834">
        <ele>2277.2</ele>
        <time>2018-12-02T10:59:32Z</time>
      </trkpt>
      <trkpt lat="42.696462" lon="0.992914">
        <ele>2278.9</ele>
        <time>2018-12-02T10:59:49Z</time>
      </trkpt>
      <trkpt lat="42.696528" lon="0.993007">
        <ele>2281.0</ele>
        <time>2018-12-02T11:00:07Z</time>
      </trkpt>
      <trkpt lat="42.696592" lon="0.993088">
        <ele>2283.4</ele>
        <time>2018-12-02T11:00:26Z</time>
      </trkpt>
      <trkpt lat="42.696645" lon="0.993174">
        <ele>2285.5</ele>
        <time>2018-12-02T11:00:46Z</time>
      </trkpt>
      <trkpt lat="42.696705" lon="0.993273">
        <ele>2287.7</ele>
        <time>2018-12-02T11:01:06Z</time>
      </trkpt>
      <trkpt lat="42.696758" lon="0.993368">
        <ele>2289.3</ele>
        <time>2018-12-02T11:01:24Z</time>
      </trkpt>
      <trkpt lat="42.696812" lon="0.993483">
        <ele>2291.5</ele>
        <time>2018-12-02T11:01:43Z</time>
      </trkpt>
      <trkpt lat="42.696853" lon="0.993600">
        <ele>2293.7</ele>
        <time>2018-12-02T11:02:02Z</time>
      </trkpt>
      <trkpt lat="42.696906" lon="0.993702">
        <ele>2295.1</ele>
        <time>2018-12-02T11:02:17Z</time>
      </trkpt>
      <trkpt lat="42.696968" lon="0.993802">
        <ele>2296.9</ele>
        <time>2018-12-02T11:02:35Z</time>
      </trkpt>
      <trkpt lat="42.697094" lon="0.993923">
        <ele>2310.2</ele>
        <time>2018-12-02T11:03:13Z</time>
      </trkpt>
      <trkpt lat="42.697260" lon="0.994070">
        <ele>2310.9</ele>
        <time>2018-12-02T11:03:52Z</time>
      </trkpt>
      <trkpt lat="42.697431" lon="0.994182">
        <ele>2311.7</ele>
        <time>2018-12-02T11:04:29Z</time>
      </trkpt>
      <trkpt lat="42.697601" lon="0.994280">
        <ele>2314.4</ele>
        <time>2018-12-02T11:05:06Z</time>
      </trkpt>
      <trkpt lat="42.697808" lon="0.994349">
        <ele>2318.4</ele>
        <time>2018-12-02T11:05:48Z</time>
      </trkpt>
      <trkpt lat="42.697964" lon="0.994434">
        <ele>2321.0</ele>
        <time>2018-12-02T11:06:22Z</time>
      </trkpt>
      <trkpt lat="42.698153" lon="0.994638">
        <ele>2323.2</ele>
        <time>2018-12-02T11:07:09Z</time>
      </trkpt>
      <trkpt lat="42.698305" lon="0.994833">
        <ele>2323.9</ele>
        <time>2018-12-02T11:07:50Z</time>
      </trkpt>
      <trkpt lat="42.698599" lon="0.995330">
        <ele>2320.4</ele>
        <time>2018-12-02T11:09:23Z</time>
      </trkpt>
      <trkpt lat="42.698742" lon="0.995594">
        <ele>2318.8</ele>
        <time>2018-12-02T11:10:11Z</time>
      </trkpt>
      <trkpt lat="42.698921" lon="0.995922">
        <ele>2317.7</ele>
        <time>2018-12-02T11:11:10Z</time>
      </trkpt>
      <trkpt lat="42.699119" lon="0.996184">
        <ele>2317.6</ele>
        <time>2018-12-02T11:12:04Z</time>
      </trkpt>
      <trkpt lat="42.699337" lon="0.996343">
        <ele>2318.0</ele>
        <time>2018-12-02T11:12:53Z</time>
      </trkpt>
      <trkpt lat="42.699428" lon="0.996345">
        <ele>2317.8</ele>
        <time>2018-12-02T11:13:04Z</time>
      </trkpt>
      <trkpt lat="42.699504" lon="0.996413">
        <ele>2317.6</ele>
        <time>2018-12-02T11:13:18Z</time>
      </trkpt>
      <trkpt lat="42.699594" lon="0.996473">
        <ele>2317.8</ele>
        <time>2018-12-02T11:13:32Z</time>
      </trkpt>
      <trkpt lat="42.699677" lon="0.996535">
        <ele>2317.4</ele>
        <time>2018-12-02T11:13:45Z</time>
      </trkpt>
      <trkpt lat="42.699751" lon="0.996581">
        <ele>2316.8</ele>
        <time>2018-12-02T11:14:02Z</time>
      </trkpt>
      <trkpt lat="42.699814" lon="0.996663">
        <ele>2315.1</ele>
        <time>2018-12-02T11:14:34Z</time>
      </trkpt>
      <trkpt lat="42.699874" lon="0.996761">
        <ele>2315.0</ele>
        <time>2018-12-02T11:14:52Z</time>
      </trkpt>
      <trkpt lat="42.699947" lon="0.996830">
        <ele>2314.9</ele>
        <time>2018-12-02T11:15:05Z</time>
      </trkpt>
      <trkpt lat="42.700042" lon="0.996833">
        <ele>2314.9</ele>
        <time>2018-12-02T11:15:21Z</time>
      </trkpt>
      <trkpt lat="42.700138" lon="0.996864">
        <ele>2316.5</ele>
        <time>2018-12-02T11:15:38Z</time>
      </trkpt>
      <trkpt lat="42.700221" lon="0.996946">
        <ele>2317.5</ele>
        <time>2018-12-02T11:15:51Z</time>
      </trkpt>
      <trkpt lat="42.700296" lon="0.997031">
        <ele>2317.6</ele>
        <time>2018-12-02T11:16:03Z</time>
      </trkpt>
      <trkpt lat="42.700366" lon="0.997107">
        <ele>2316.4</ele>
        <time>2018-12-02T11:16:15Z</time>
      </trkpt>
      <trkpt lat="42.700439" lon="0.997178">
        <ele>2315.4</ele>
        <time>2018-12-02T11:16:27Z</time>
      </trkpt>
      <trkpt lat="42.700517" lon="0.997262">
        <ele>2315.0</ele>
        <time>2018-12-02T11:16:40Z</time>
      </trkpt>
      <trkpt lat="42.700594" lon="0.997329">
        <ele>2314.9</ele>
        <time>2018-12-02T11:16:51Z</time>
      </trkpt>
      <trkpt lat="42.700671" lon="0.997395">
        <ele>2314.6</ele>
        <time>2018-12-02T11:17:03Z</time>
      </trkpt>
      <trkpt lat="42.700742" lon="0.997466">
        <ele>2314.0</ele>
        <time>2018-12-02T11:17:14Z</time>
      </trkpt>
      <trkpt lat="42.700821" lon="0.997538">
        <ele>2312.9</ele>
        <time>2018-12-02T11:17:28Z</time>
      </trkpt>
      <trkpt lat="42.700909" lon="0.997590">
        <ele>2312.8</ele>
        <time>2018-12-02T11:17:41Z</time>
      </trkpt>
      <trkpt lat="42.700995" lon="0.997646">
        <ele>2312.8</ele>
        <time>2018-12-02T11:17:54Z</time>
      </trkpt>
      <trkpt lat="42.701083" lon="0.997715">
        <ele>2312.8</ele>
        <time>2018-12-02T11:18:08Z</time>
      </trkpt>
      <trkpt lat="42.701131" lon="0.997767">
        <ele>2313.1</ele>
        <time>2018-12-02T11:19:05Z</time>
      </trkpt>
      <trkpt lat="42.701233" lon="0.997760">
        <ele>2312.9</ele>
        <time>2018-12-02T11:19:18Z</time>
      </trkpt>
      <trkpt lat="42.701330" lon="0.997733">
        <ele>2312.8</ele>
        <time>2018-12-02T11:19:31Z</time>
      </trkpt>
      <trkpt lat="42.701417" lon="0.997745">
        <ele>2312.7</ele>
        <time>2018-12-02T11:19:49Z</time>
      </trkpt>
      <trkpt lat="42.701430" lon="0.997737">
        <ele>2312.7</ele>
        <time>2018-12-02T11:21:22Z</time>
      </trkpt>
      <trkpt lat="42.701510" lon="0.997640">
        <ele>2313.1</ele>
        <time>2018-12-02T11:21:38Z</time>
      </trkpt>
      <trkpt lat="42.701576" lon="0.997548">
        <ele>2313.1</ele>
        <time>2018-12-02T11:21:53Z</time>
      </trkpt>
      <trkpt lat="42.701639" lon="0.997451">
        <ele>2313.1</ele>
        <time>2018-12-02T11:22:06Z</time>
      </trkpt>
      <trkpt lat="42.701721" lon="0.997371">
        <ele>2313.2</ele>
        <time>2018-12-02T11:22:21Z</time>
      </trkpt>
      <trkpt lat="42.701814" lon="0.997399">
        <ele>2313.3</ele>
        <time>2018-12-02T11:22:34Z</time>
      </trkpt>
      <trkpt lat="42.701891" lon="0.997468">
        <ele>2313.9</ele>
        <time>2018-12-02T11:22:53Z</time>
      </trkpt>
      <trkpt lat="42.701973" lon="0.997550">
        <ele>2313.1</ele>
        <time>2018-12-02T11:23:05Z</time>
      </trkpt>
      <trkpt lat="42.702039" lon="0.997647">
        <ele>2312.8</ele>
        <time>2018-12-02T11:23:19Z</time>
      </trkpt>
      <trkpt lat="42.702092" lon="0.997761">
        <ele>2313.1</ele>
        <time>2018-12-02T11:23:33Z</time>
      </trkpt>
      <trkpt lat="42.702134" lon="0.997886">
        <ele>2312.8</ele>
        <time>2018-12-02T11:23:46Z</time>
      </trkpt>
      <trkpt lat="42.702180" lon="0.997995">
        <ele>2312.5</ele>
        <time>2018-12-02T11:23:58Z</time>
      </trkpt>
      <trkpt lat="42.702225" lon="0.998108">
        <ele>2312.6</ele>
        <time>2018-12-02T11:24:12Z</time>
      </trkpt>
      <trkpt lat="42.702282" lon="0.998206">
        <ele>2312.4</ele>
        <time>2018-12-02T11:24:25Z</time>
      </trkpt>
      <trkpt lat="42.702362" lon="0.998270">
        <ele>2312.5</ele>
        <time>2018-12-02T11:24:39Z</time>
      </trkpt>
      <trkpt lat="42.702430" lon="0.998355">
        <ele>2312.5</ele>
        <time>2018-12-02T11:24:59Z</time>
      </trkpt>
      <trkpt lat="42.702504" lon="0.998422">
        <ele>2312.5</ele>
        <time>2018-12-02T11:25:12Z</time>
      </trkpt>
      <trkpt lat="42.702589" lon="0.998471">
        <ele>2312.7</ele>
        <time>2018-12-02T11:25:27Z</time>
      </trkpt>
      <trkpt lat="42.702688" lon="0.998498">
        <ele>2312.8</ele>
        <time>2018-12-02T11:25:43Z</time>
      </trkpt>
      <trkpt lat="42.702789" lon="0.998480">
        <ele>2313.0</ele>
        <time>2018-12-02T11:25:56Z</time>
      </trkpt>
      <trkpt lat="42.702879" lon="0.998447">
        <ele>2313.2</ele>
        <time>2018-12-02T11:26:09Z</time>
      </trkpt>
      <trkpt lat="42.702954" lon="0.998374">
        <ele>2313.5</ele>
        <time>2018-12-02T11:26:23Z</time>
      </trkpt>
      <trkpt lat="42.703035" lon="0.998316">
        <ele>2314.5</ele>
        <time>2018-12-02T11:26:38Z</time>
      </trkpt>
      <trkpt lat="42.703131" lon="0.998269">
        <ele>2314.7</ele>
        <time>2018-12-02T11:26:53Z</time>
      </trkpt>
      <trkpt lat="42.703208" lon="0.998204">
        <ele>2315.3</ele>
        <time>2018-12-02T11:27:07Z</time>
      </trkpt>
      <trkpt lat="42.703263" lon="0.998084">
        <ele>2315.7</ele>
        <time>2018-12-02T11:27:22Z</time>
      </trkpt>
      <trkpt lat="42.703318" lon="0.997987">
        <ele>2316.3</ele>
        <time>2018-12-02T11:27:35Z</time>
      </trkpt>
      <trkpt lat="42.703375" lon="0.997898">
        <ele>2316.5</ele>
        <time>2018-12-02T11:27:49Z</time>
      </trkpt>
      <trkpt lat="42.703430" lon="0.997795">
        <ele>2316.2</ele>
        <time>2018-12-02T11:28:03Z</time>
      </trkpt>
      <trkpt lat="42.703486" lon="0.997691">
        <ele>2316.0</ele>
        <time>2018-12-02T11:28:18Z</time>
      </trkpt>
      <trkpt lat="42.703558" lon="0.997620">
        <ele>2317.3</ele>
        <time>2018-12-02T11:28:34Z</time>
      </trkpt>
      <trkpt lat="42.703617" lon="0.997546">
        <ele>2319.3</ele>
        <time>2018-12-02T11:28:55Z</time>
      </trkpt>
      <trkpt lat="42.703697" lon="0.997509">
        <ele>2321.8</ele>
        <time>2018-12-02T11:29:19Z</time>
      </trkpt>
      <trkpt lat="42.703763" lon="0.997430">
        <ele>2324.4</ele>
        <time>2018-12-02T11:29:43Z</time>
      </trkpt>
      <trkpt lat="42.703795" lon="0.997329">
        <ele>2326.5</ele>
        <time>2018-12-02T11:30:01Z</time>
      </trkpt>
      <trkpt lat="42.703869" lon="0.997310">
        <ele>2328.1</ele>
        <time>2018-12-02T11:30:20Z</time>
      </trkpt>
      <trkpt lat="42.703964" lon="0.997206">
        <ele>2330.4</ele>
        <time>2018-12-02T11:40:19Z</time>
      </trkpt>
      <trkpt lat="42.704023" lon="0.997069">
        <ele>2330.8</ele>
        <time>2018-12-02T11:41:00Z</time>
      </trkpt>
      <trkpt lat="42.704100" lon="0.996981">
        <ele>2332.0</ele>
        <time>2018-12-02T11:41:15Z</time>
      </trkpt>
      <trkpt lat="42.704186" lon="0.996942">
        <ele>2332.9</ele>
        <time>2018-12-02T11:41:32Z</time>
      </trkpt>
      <trkpt lat="42.704274" lon="0.996866">
        <ele>2335.3</ele>
        <time>2018-12-02T11:41:55Z</time>
      </trkpt>
      <trkpt lat="42.704333" lon="0.996767">
        <ele>2337.1</ele>
        <time>2018-12-02T11:42:14Z</time>
      </trkpt>
      <trkpt lat="42.704410" lon="0.996715">
        <ele>2339.6</ele>
        <time>2018-12-02T11:42:36Z</time>
      </trkpt>
      <trkpt lat="42.704496" lon="0.996774">
        <ele>2342.7</ele>
        <time>2018-12-02T11:43:11Z</time>
      </trkpt>
      <trkpt lat="42.704575" lon="0.996704">
        <ele>2344.6</ele>
        <time>2018-12-02T11:43:37Z</time>
      </trkpt>
      <trkpt lat="42.704605" lon="0.996589">
        <ele>2345.7</ele>
        <time>2018-12-02T11:43:55Z</time>
      </trkpt>
      <trkpt lat="42.704684" lon="0.996533">
        <ele>2347.6</ele>
        <time>2018-12-02T11:44:18Z</time>
      </trkpt>
      <trkpt lat="42.704711" lon="0.996434">
        <ele>2349.7</ele>
        <time>2018-12-02T11:44:39Z</time>
      </trkpt>
      <trkpt lat="42.704759" lon="0.996334">
        <ele>2351.2</ele>
        <time>2018-12-02T11:44:56Z</time>
      </trkpt>
      <trkpt lat="42.704810" lon="0.996331">
        <ele>2354.0</ele>
        <time>2018-12-02T11:45:22Z</time>
      </trkpt>
      <trkpt lat="42.704942" lon="0.996203">
        <ele>2363.2</ele>
        <time>2018-12-02T11:46:40Z</time>
      </trkpt>
      <trkpt lat="42.704967" lon="0.996075">
        <ele>2364.3</ele>
        <time>2018-12-02T11:46:59Z</time>
      </trkpt>
      <trkpt lat="42.705032" lon="0.995973">
        <ele>2365.1</ele>
        <time>2018-12-02T11:47:17Z</time>
      </trkpt>
      <trkpt lat="42.705138" lon="0.995936">
        <ele>2366.6</ele>
        <time>2018-12-02T11:47:40Z</time>
      </trkpt>
      <trkpt lat="42.705170" lon="0.995850">
        <ele>2368.6</ele>
        <time>2018-12-02T11:48:07Z</time>
      </trkpt>
      <trkpt lat="42.705234" lon="0.995790">
        <ele>2371.5</ele>
        <time>2018-12-02T11:48:53Z</time>
      </trkpt>
      <trkpt lat="42.705298" lon="0.995772">
        <ele>2373.9</ele>
        <time>2018-12-02T11:49:24Z</time>
      </trkpt>
      <trkpt lat="42.705339" lon="0.995686">
        <ele>2376.0</ele>
        <time>2018-12-02T11:49:50Z</time>
      </trkpt>
      <trkpt lat="42.705353" lon="0.995572">
        <ele>2380.2</ele>
        <time>2018-12-02T11:50:26Z</time>
      </trkpt>
      <trkpt lat="42.705380" lon="0.995506">
        <ele>2381.6</ele>
        <time>2018-12-02T11:50:44Z</time>
      </trkpt>
      <trkpt lat="42.705469" lon="0.995498">
        <ele>2385.0</ele>
        <time>2018-12-02T11:51:15Z</time>
      </trkpt>
      <trkpt lat="42.705499" lon="0.995467">
        <ele>2388.6</ele>
        <time>2018-12-02T11:51:40Z</time>
      </trkpt>
      <trkpt lat="42.705596" lon="0.995345">
        <ele>2392.9</ele>
        <time>2018-12-02T11:53:03Z</time>
      </trkpt>
      <trkpt lat="42.705667" lon="0.995301">
        <ele>2396.3</ele>
        <time>2018-12-02T11:53:31Z</time>
      </trkpt>
      <trkpt lat="42.705715" lon="0.995274">
        <ele>2399.1</ele>
        <time>2018-12-02T11:53:56Z</time>
      </trkpt>
      <trkpt lat="42.705766" lon="0.995126">
        <ele>2407.0</ele>
        <time>2018-12-02T11:55:09Z</time>
      </trkpt>
      <trkpt lat="42.705739" lon="0.995000">
        <ele>2407.4</ele>
        <time>2018-12-02T11:55:39Z</time>
      </trkpt>
      <trkpt lat="42.705748" lon="0.994874">
        <ele>2407.1</ele>
        <time>2018-12-02T11:55:52Z</time>
      </trkpt>
      <trkpt lat="42.705780" lon="0.994757">
        <ele>2408.9</ele>
        <time>2018-12-02T11:56:09Z</time>
      </trkpt>
      <trkpt lat="42.705865" lon="0.994547">
        <ele>2413.6</ele>
        <time>2018-12-02T11:57:09Z</time>
      </trkpt>
      <trkpt lat="42.705883" lon="0.994442">
        <ele>2416.6</ele>
        <time>2018-12-02T11:57:45Z</time>
      </trkpt>
      <trkpt lat="42.705895" lon="0.994246">
        <ele>2423.4</ele>
        <time>2018-12-02T11:59:23Z</time>
      </trkpt>
      <trkpt lat="42.705914" lon="0.994106">
        <ele>2426.2</ele>
        <time>2018-12-02T12:00:06Z</time>
      </trkpt>
      <trkpt lat="42.705957" lon="0.993934">
        <ele>2432.2</ele>
        <time>2018-12-02T12:01:13Z</time>
      </trkpt>
      <trkpt lat="42.705963" lon="0.993808">
        <ele>2434.6</ele>
        <time>2018-12-02T12:02:12Z</time>
      </trkpt>
      <trkpt lat="42.705961" lon="0.993642">
        <ele>2468.0</ele>
        <time>2018-12-02T12:03:45Z</time>
      </trkpt>
      <trkpt lat="42.705991" lon="0.993406">
        <ele>2461.9</ele>
        <time>2018-12-02T12:04:37Z</time>
      </trkpt>
      <trkpt lat="42.706032" lon="0.993214">
        <ele>2457.6</ele>
        <time>2018-12-02T12:05:21Z</time>
      </trkpt>
      <trkpt lat="42.706057" lon="0.992946">
        <ele>2440.3</ele>
        <time>2018-12-02T12:06:34Z</time>
      </trkpt>
      <trkpt lat="42.706141" lon="0.992903">
        <ele>2440.8</ele>
        <time>2018-12-02T12:07:10Z</time>
      </trkpt>
      <trkpt lat="42.706180" lon="0.992845">
        <ele>2440.4</ele>
        <time>2018-12-02T12:08:51Z</time>
      </trkpt>
      <trkpt lat="42.706256" lon="0.992779">
        <ele>2440.0</ele>
        <time>2018-12-02T12:09:07Z</time>
      </trkpt>
      <trkpt lat="42.706354" lon="0.992737">
        <ele>2438.6</ele>
        <time>2018-12-02T12:09:18Z</time>
      </trkpt>
      <trkpt lat="42.706442" lon="0.992684">
        <ele>2437.1</ele>
        <time>2018-12-02T12:09:29Z</time>
      </trkpt>
      <trkpt lat="42.706537" lon="0.992637">
        <ele>2434.3</ele>
        <time>2018-12-02T12:09:40Z</time>
      </trkpt>
      <trkpt lat="42.706642" lon="0.992640">
        <ele>2433.0</ele>
        <time>2018-12-02T12:09:52Z</time>
      </trkpt>
      <trkpt lat="42.706992" lon="0.992440">
        <ele>2449.4</ele>
        <time>2018-12-02T12:11:48Z</time>
      </trkpt>
      <trkpt lat="42.707336" lon="0.992317">
        <ele>2456.4</ele>
        <time>2018-12-02T12:13:31Z</time>
      </trkpt>
      <trkpt lat="42.707527" lon="0.992130">
        <ele>2458.2</ele>
        <time>2018-12-02T12:14:38Z</time>
      </trkpt>
      <trkpt lat="42.707810" lon="0.992009">
        <ele>2462.7</ele>
        <time>2018-12-02T12:16:04Z</time>
      </trkpt>
      <trkpt lat="42.707985" lon="0.991815">
        <ele>2462.6</ele>
        <time>2018-12-02T12:17:08Z</time>
      </trkpt>
      <trkpt lat="42.708237" lon="0.991631">
        <ele>2464.0</ele>
        <time>2018-12-02T12:18:30Z</time>
      </trkpt>
      <trkpt lat="42.708583" lon="0.991581">
        <ele>2470.8</ele>
        <time>2018-12-02T12:20:11Z</time>
      </trkpt>
      <trkpt lat="42.708829" lon="0.991702">
        <ele>2477.3</ele>
        <time>2018-12-02T12:21:27Z</time>
      </trkpt>
      <trkpt lat="42.709068" lon="0.991895">
        <ele>2487.2</ele>
        <time>2018-12-02T12:22:51Z</time>
      </trkpt>
      <trkpt lat="42.709230" lon="0.992289">
        <ele>2501.7</ele>
        <time>2018-12-02T12:24:33Z</time>
      </trkpt>
      <trkpt lat="42.709351" lon="0.992702">
        <ele>2516.9</ele>
        <time>2018-12-02T12:26:14Z</time>
      </trkpt>
      <trkpt lat="42.709449" lon="0.993170">
        <ele>2532.0</ele>
        <time>2018-12-02T12:28:03Z</time>
      </trkpt>
      <trkpt lat="42.709506" lon="0.993523">
        <ele>2540.6</ele>
        <time>2018-12-02T12:29:22Z</time>
      </trkpt>
      <trkpt lat="42.709584" lon="0.993873">
        <ele>2547.5</ele>
        <time>2018-12-02T12:30:41Z</time>
      </trkpt>
      <trkpt lat="42.709650" lon="0.994094">
        <ele>2551.6</ele>
        <time>2018-12-02T12:31:32Z</time>
      </trkpt>
      <trkpt lat="42.709841" lon="0.994333">
        <ele>2542.6</ele>
        <time>2018-12-02T12:32:50Z</time>
      </trkpt>
      <trkpt lat="42.709934" lon="0.994352">
        <ele>2544.7</ele>
        <time>2018-12-02T12:33:12Z</time>
      </trkpt>
      <trkpt lat="42.710021" lon="0.994374">
        <ele>2547.0</ele>
        <time>2018-12-02T12:33:34Z</time>
      </trkpt>
      <trkpt lat="42.710104" lon="0.994436">
        <ele>2550.6</ele>
        <time>2018-12-02T12:34:01Z</time>
      </trkpt>
      <trkpt lat="42.710177" lon="0.994470">
        <ele>2554.5</ele>
        <time>2018-12-02T12:34:32Z</time>
      </trkpt>
      <trkpt lat="42.710269" lon="0.994486">
        <ele>2557.6</ele>
        <time>2018-12-02T12:35:00Z</time>
      </trkpt>
      <trkpt lat="42.710365" lon="0.994439">
        <ele>2560.6</ele>
        <time>2018-12-02T12:35:25Z</time>
      </trkpt>
      <trkpt lat="42.710465" lon="0.994410">
        <ele>2562.7</ele>
        <time>2018-12-02T12:35:46Z</time>
      </trkpt>
      <trkpt lat="42.710535" lon="0.994353">
        <ele>2565.2</ele>
        <time>2018-12-02T12:36:03Z</time>
      </trkpt>
      <trkpt lat="42.710625" lon="0.994328">
        <ele>2567.2</ele>
        <time>2018-12-02T12:36:29Z</time>
      </trkpt>
      <trkpt lat="42.710702" lon="0.994247">
        <ele>2569.4</ele>
        <time>2018-12-02T12:36:54Z</time>
      </trkpt>
      <trkpt lat="42.710775" lon="0.994154">
        <ele>2569.9</ele>
        <time>2018-12-02T12:37:11Z</time>
      </trkpt>
      <trkpt lat="42.710865" lon="0.994123">
        <ele>2572.3</ele>
        <time>2018-12-02T12:37:42Z</time>
      </trkpt>
      <trkpt lat="42.710883" lon="0.994073">
        <ele>2571.6</ele>
        <time>2018-12-02T12:42:46Z</time>
      </trkpt>
      <trkpt lat="42.710942" lon="0.993971">
        <ele>2571.7</ele>
        <time>2018-12-02T12:43:10Z</time>
      </trkpt>
      <trkpt lat="42.710995" lon="0.993874">
        <ele>2572.2</ele>
        <time>2018-12-02T12:43:48Z</time>
      </trkpt>
      <trkpt lat="42.711055" lon="0.993787">
        <ele>2572.2</ele>
        <time>2018-12-02T12:44:05Z</time>
      </trkpt>
      <trkpt lat="42.711132" lon="0.993728">
        <ele>2572.8</ele>
        <time>2018-12-02T12:44:22Z</time>
      </trkpt>
      <trkpt lat="42.711186" lon="0.993623">
        <ele>2574.1</ele>
        <time>2018-12-02T12:44:36Z</time>
      </trkpt>
      <trkpt lat="42.711237" lon="0.993530">
        <ele>2574.1</ele>
        <time>2018-12-02T12:44:49Z</time>
      </trkpt>
      <trkpt lat="42.711282" lon="0.993416">
        <ele>2574.5</ele>
        <time>2018-12-02T12:45:04Z</time>
      </trkpt>
      <trkpt lat="42.711363" lon="0.993339">
        <ele>2575.6</ele>
        <time>2018-12-02T12:45:22Z</time>
      </trkpt>
      <trkpt lat="42.711436" lon="0.993314">
        <ele>2578.2</ele>
        <time>2018-12-02T12:46:18Z</time>
      </trkpt>
      <trkpt lat="42.711495" lon="0.993227">
        <ele>2581.4</ele>
        <time>2018-12-02T12:47:29Z</time>
      </trkpt>
      <trkpt lat="42.711568" lon="0.993164">
        <ele>2586.1</ele>
        <time>2018-12-02T12:48:11Z</time>
      </trkpt>
      <trkpt lat="42.711627" lon="0.993107">
        <ele>2588.5</ele>
        <time>2018-12-02T12:48:33Z</time>
      </trkpt>
      <trkpt lat="42.711706" lon="0.993031">
        <ele>2592.6</ele>
        <time>2018-12-02T12:49:01Z</time>
      </trkpt>
      <trkpt lat="42.711781" lon="0.992959">
        <ele>2596.3</ele>
        <time>2018-12-02T12:49:46Z</time>
      </trkpt>
      <trkpt lat="42.711859" lon="0.992911">
        <ele>2600.3</ele>
        <time>2018-12-02T12:50:11Z</time>
      </trkpt>
      <trkpt lat="42.711893" lon="0.992821">
        <ele>2603.1</ele>
        <time>2018-12-02T12:50:39Z</time>
      </trkpt>
      <trkpt lat="42.711973" lon="0.992770">
        <ele>2608.1</ele>
        <time>2018-12-02T12:51:53Z</time>
      </trkpt>
      <trkpt lat="42.712031" lon="0.992696">
        <ele>2611.8</ele>
        <time>2018-12-02T12:52:22Z</time>
      </trkpt>
      <trkpt lat="42.712082" lon="0.992598">
        <ele>2614.5</ele>
        <time>2018-12-02T12:53:02Z</time>
      </trkpt>
      <trkpt lat="42.712153" lon="0.992529">
        <ele>2617.3</ele>
        <time>2018-12-02T12:53:31Z</time>
      </trkpt>
      <trkpt lat="42.712243" lon="0.992475">
        <ele>2621.1</ele>
        <time>2018-12-02T12:54:04Z</time>
      </trkpt>
      <trkpt lat="42.712277" lon="0.992366">
        <ele>2623.1</ele>
        <time>2018-12-02T12:54:26Z</time>
      </trkpt>
      <trkpt lat="42.712341" lon="0.992269">
        <ele>2625.7</ele>
        <time>2018-12-02T12:54:59Z</time>
      </trkpt>
      <trkpt lat="42.712382" lon="0.992155">
        <ele>2626.0</ele>
        <time>2018-12-02T12:55:21Z</time>
      </trkpt>
      <trkpt lat="42.712427" lon="0.992046">
        <ele>2628.7</ele>
        <time>2018-12-02T12:55:48Z</time>
      </trkpt>
      <trkpt lat="42.712474" lon="0.991968">
        <ele>2631.3</ele>
        <time>2018-12-02T12:56:16Z</time>
      </trkpt>
      <trkpt lat="42.712516" lon="0.991870">
        <ele>2631.9</ele>
        <time>2018-12-02T12:56:33Z</time>
      </trkpt>
      <trkpt lat="42.712592" lon="0.991812">
        <ele>2635.3</ele>
        <time>2018-12-02T12:57:24Z</time>
      </trkpt>
      <trkpt lat="42.712603" lon="0.991703">
        <ele>2636.7</ele>
        <time>2018-12-02T12:57:55Z</time>
      </trkpt>
      <trkpt lat="42.712615" lon="0.991584">
        <ele>2637.2</ele>
        <time>2018-12-02T12:58:21Z</time>
      </trkpt>
      <trkpt lat="42.712626" lon="0.991480">
        <ele>2634.5</ele>
        <time>2018-12-02T12:58:44Z</time>
      </trkpt>
      <trkpt lat="42.712642" lon="0.991356">
        <ele>2634.7</ele>
        <time>2018-12-02T12:59:11Z</time>
      </trkpt>
      <trkpt lat="42.712664" lon="0.991243">
        <ele>2637.4</ele>
        <time>2018-12-02T12:59:45Z</time>
      </trkpt>
      <trkpt lat="42.712685" lon="0.991233">
        <ele>2640.1</ele>
        <time>2018-12-02T13:01:47Z</time>
      </trkpt>
      <trkpt lat="42.712679" lon="0.991314">
        <ele>2644.6</ele>
        <time>2018-12-02T13:25:42Z</time>
      </trkpt>
      <trkpt lat="42.712657" lon="0.991379">
        <ele>2646.7</ele>
        <time>2018-12-02T13:52:05Z</time>
      </trkpt>
      <trkpt lat="42.712610" lon="0.991587">
        <ele>2643.4</ele>
        <time>2018-12-02T13:53:19Z</time>
      </trkpt>
      <trkpt lat="42.712607" lon="0.991720">
        <ele>2645.8</ele>
        <time>2018-12-02T13:53:37Z</time>
      </trkpt>
      <trkpt lat="42.712587" lon="0.991829">
        <ele>2644.6</ele>
        <time>2018-12-02T13:53:52Z</time>
      </trkpt>
      <trkpt lat="42.712559" lon="0.991946">
        <ele>2642.7</ele>
        <time>2018-12-02T13:54:08Z</time>
      </trkpt>
      <trkpt lat="42.712495" lon="0.992052">
        <ele>2642.6</ele>
        <time>2018-12-02T13:54:27Z</time>
      </trkpt>
      <trkpt lat="42.712440" lon="0.992088">
        <ele>2640.2</ele>
        <time>2018-12-02T13:54:41Z</time>
      </trkpt>
      <trkpt lat="42.712399" lon="0.992185">
        <ele>2636.8</ele>
        <time>2018-12-02T13:55:07Z</time>
      </trkpt>
      <trkpt lat="42.712354" lon="0.992309">
        <ele>2635.2</ele>
        <time>2018-12-02T13:55:19Z</time>
      </trkpt>
      <trkpt lat="42.712287" lon="0.992413">
        <ele>2634.2</ele>
        <time>2018-12-02T13:55:33Z</time>
      </trkpt>
      <trkpt lat="42.712242" lon="0.992518">
        <ele>2631.5</ele>
        <time>2018-12-02T13:55:44Z</time>
      </trkpt>
      <trkpt lat="42.712170" lon="0.992546">
        <ele>2627.9</ele>
        <time>2018-12-02T13:56:01Z</time>
      </trkpt>
      <trkpt lat="42.712109" lon="0.992660">
        <ele>2624.1</ele>
        <time>2018-12-02T13:56:20Z</time>
      </trkpt>
      <trkpt lat="42.712056" lon="0.992764">
        <ele>2621.7</ele>
        <time>2018-12-02T13:56:48Z</time>
      </trkpt>
      <trkpt lat="42.711979" lon="0.992813">
        <ele>2618.8</ele>
        <time>2018-12-02T13:57:19Z</time>
      </trkpt>
      <trkpt lat="42.711947" lon="0.992792">
        <ele>2615.7</ele>
        <time>2018-12-02T13:57:49Z</time>
      </trkpt>
      <trkpt lat="42.711877" lon="0.992845">
        <ele>2613.2</ele>
        <time>2018-12-02T13:58:06Z</time>
      </trkpt>
      <trkpt lat="42.711818" lon="0.992942">
        <ele>2609.9</ele>
        <time>2018-12-02T13:58:26Z</time>
      </trkpt>
      <trkpt lat="42.711748" lon="0.993012">
        <ele>2607.2</ele>
        <time>2018-12-02T13:58:42Z</time>
      </trkpt>
      <trkpt lat="42.711676" lon="0.993055">
        <ele>2602.7</ele>
        <time>2018-12-02T13:59:03Z</time>
      </trkpt>
      <trkpt lat="42.711609" lon="0.993118">
        <ele>2599.1</ele>
        <time>2018-12-02T13:59:26Z</time>
      </trkpt>
      <trkpt lat="42.711535" lon="0.993155">
        <ele>2594.5</ele>
        <time>2018-12-02T14:00:00Z</time>
      </trkpt>
      <trkpt lat="42.711478" lon="0.993258">
        <ele>2591.6</ele>
        <time>2018-12-02T14:00:26Z</time>
      </trkpt>
      <trkpt lat="42.711426" lon="0.993312">
        <ele>2588.9</ele>
        <time>2018-12-02T14:00:50Z</time>
      </trkpt>
      <trkpt lat="42.711367" lon="0.993319">
        <ele>2585.7</ele>
        <time>2018-12-02T14:01:39Z</time>
      </trkpt>
      <trkpt lat="42.711327" lon="0.993357">
        <ele>2586.1</ele>
        <time>2018-12-02T14:04:19Z</time>
      </trkpt>
      <trkpt lat="42.711265" lon="0.993453">
        <ele>2585.3</ele>
        <time>2018-12-02T14:04:30Z</time>
      </trkpt>
      <trkpt lat="42.711219" lon="0.993574">
        <ele>2584.1</ele>
        <time>2018-12-02T14:04:43Z</time>
      </trkpt>
      <trkpt lat="42.711143" lon="0.993655">
        <ele>2584.2</ele>
        <time>2018-12-02T14:04:53Z</time>
      </trkpt>
      <trkpt lat="42.711059" lon="0.993664">
        <ele>2582.0</ele>
        <time>2018-12-02T14:05:07Z</time>
      </trkpt>
      <trkpt lat="42.710968" lon="0.993665">
        <ele>2579.4</ele>
        <time>2018-12-02T14:05:19Z</time>
      </trkpt>
      <trkpt lat="42.710879" lon="0.993704">
        <ele>2576.2</ele>
        <time>2018-12-02T14:05:32Z</time>
      </trkpt>
      <trkpt lat="42.710751" lon="0.993627">
        <ele>2568.9</ele>
        <time>2018-12-02T14:06:12Z</time>
      </trkpt>
      <trkpt lat="42.710594" lon="0.993479">
        <ele>2560.6</ele>
        <time>2018-12-02T14:07:22Z</time>
      </trkpt>
      <trkpt lat="42.710453" lon="0.993327">
        <ele>2565.2</ele>
        <time>2018-12-02T14:08:27Z</time>
      </trkpt>
      <trkpt lat="42.710340" lon="0.993191">
        <ele>2562.7</ele>
        <time>2018-12-02T14:09:20Z</time>
      </trkpt>
      <trkpt lat="42.710182" lon="0.993000">
        <ele>2556.7</ele>
        <time>2018-12-02T14:10:35Z</time>
      </trkpt>
      <trkpt lat="42.710077" lon="0.992822">
        <ele>2550.3</ele>
        <time>2018-12-02T14:11:37Z</time>
      </trkpt>
      <trkpt lat="42.709944" lon="0.992598">
        <ele>2540.3</ele>
        <time>2018-12-02T14:12:57Z</time>
      </trkpt>
      <trkpt lat="42.709861" lon="0.992460">
        <ele>2534.2</ele>
        <time>2018-12-02T14:13:46Z</time>
      </trkpt>
      <trkpt lat="42.709775" lon="0.992266">
        <ele>2488.9</ele>
        <time>2018-12-02T14:16:19Z</time>
      </trkpt>
      <trkpt lat="42.709788" lon="0.992143">
        <ele>2487.7</ele>
        <time>2018-12-02T14:16:28Z</time>
      </trkpt>
      <trkpt lat="42.709755" lon="0.992032">
        <ele>2485.6</ele>
        <time>2018-12-02T14:16:36Z</time>
      </trkpt>
      <trkpt lat="42.709696" lon="0.991927">
        <ele>2483.6</ele>
        <time>2018-12-02T14:16:45Z</time>
      </trkpt>
      <trkpt lat="42.709621" lon="0.991846">
        <ele>2481.2</ele>
        <time>2018-12-02T14:16:54Z</time>
      </trkpt>
      <trkpt lat="42.709542" lon="0.991796">
        <ele>2479.2</ele>
        <time>2018-12-02T14:17:03Z</time>
      </trkpt>
      <trkpt lat="42.709457" lon="0.991775">
        <ele>2477.0</ele>
        <time>2018-12-02T14:17:13Z</time>
      </trkpt>
      <trkpt lat="42.709379" lon="0.991707">
        <ele>2473.9</ele>
        <time>2018-12-02T14:17:24Z</time>
      </trkpt>
      <trkpt lat="42.709352" lon="0.991593">
        <ele>2471.2</ele>
        <time>2018-12-02T14:17:33Z</time>
      </trkpt>
      <trkpt lat="42.709314" lon="0.991465">
        <ele>2468.6</ele>
        <time>2018-12-02T14:17:42Z</time>
      </trkpt>
      <trkpt lat="42.709266" lon="0.991347">
        <ele>2465.8</ele>
        <time>2018-12-02T14:17:51Z</time>
      </trkpt>
      <trkpt lat="42.709235" lon="0.991241">
        <ele>2462.7</ele>
        <time>2018-12-02T14:18:17Z</time>
      </trkpt>
      <trkpt lat="42.709209" lon="0.991118">
        <ele>2462.2</ele>
        <time>2018-12-02T14:18:29Z</time>
      </trkpt>
      <trkpt lat="42.709188" lon="0.990978">
        <ele>2462.7</ele>
        <time>2018-12-02T14:18:41Z</time>
      </trkpt>
      <trkpt lat="42.709179" lon="0.990844">
        <ele>2463.2</ele>
        <time>2018-12-02T14:18:53Z</time>
      </trkpt>
      <trkpt lat="42.709169" lon="0.990709">
        <ele>2463.4</ele>
        <time>2018-12-02T14:19:03Z</time>
      </trkpt>
      <trkpt lat="42.709173" lon="0.990577">
        <ele>2463.5</ele>
        <time>2018-12-02T14:19:13Z</time>
      </trkpt>
      <trkpt lat="42.709165" lon="0.990449">
        <ele>2462.9</ele>
        <time>2018-12-02T14:19:22Z</time>
      </trkpt>
      <trkpt lat="42.709139" lon="0.990379">
        <ele>2460.7</ele>
        <time>2018-12-02T14:19:37Z</time>
      </trkpt>
      <trkpt lat="42.709135" lon="0.990248">
        <ele>2459.6</ele>
        <time>2018-12-02T14:20:01Z</time>
      </trkpt>
      <trkpt lat="42.709110" lon="0.990120">
        <ele>2457.8</ele>
        <time>2018-12-02T14:20:10Z</time>
      </trkpt>
      <trkpt lat="42.709109" lon="0.990034">
        <ele>2455.3</ele>
        <time>2018-12-02T14:21:16Z</time>
      </trkpt>
      <trkpt lat="42.709089" lon="0.989903">
        <ele>2453.7</ele>
        <time>2018-12-02T14:21:25Z</time>
      </trkpt>
      <trkpt lat="42.709069" lon="0.989771">
        <ele>2451.1</ele>
        <time>2018-12-02T14:21:34Z</time>
      </trkpt>
      <trkpt lat="42.709060" lon="0.989647">
        <ele>2448.1</ele>
        <time>2018-12-02T14:21:45Z</time>
      </trkpt>
      <trkpt lat="42.709044" lon="0.989514">
        <ele>2445.3</ele>
        <time>2018-12-02T14:21:57Z</time>
      </trkpt>
      <trkpt lat="42.709025" lon="0.989386">
        <ele>2442.4</ele>
        <time>2018-12-02T14:22:07Z</time>
      </trkpt>
      <trkpt lat="42.708957" lon="0.989271">
        <ele>2438.7</ele>
        <time>2018-12-02T14:22:18Z</time>
      </trkpt>
      <trkpt lat="42.708896" lon="0.989156">
        <ele>2435.8</ele>
        <time>2018-12-02T14:22:29Z</time>
      </trkpt>
      <trkpt lat="42.708859" lon="0.989025">
        <ele>2433.4</ele>
        <time>2018-12-02T14:22:41Z</time>
      </trkpt>
      <trkpt lat="42.708790" lon="0.988915">
        <ele>2432.0</ele>
        <time>2018-12-02T14:22:53Z</time>
      </trkpt>
      <trkpt lat="42.708714" lon="0.988792">
        <ele>2431.0</ele>
        <time>2018-12-02T14:23:04Z</time>
      </trkpt>
      <trkpt lat="42.708641" lon="0.988697">
        <ele>2430.9</ele>
        <time>2018-12-02T14:23:14Z</time>
      </trkpt>
      <trkpt lat="42.708565" lon="0.988615">
        <ele>2430.8</ele>
        <time>2018-12-02T14:23:23Z</time>
      </trkpt>
      <trkpt lat="42.708479" lon="0.988553">
        <ele>2430.5</ele>
        <time>2018-12-02T14:23:32Z</time>
      </trkpt>
      <trkpt lat="42.708389" lon="0.988496">
        <ele>2430.2</ele>
        <time>2018-12-02T14:23:41Z</time>
      </trkpt>
      <trkpt lat="42.708290" lon="0.988453">
        <ele>2429.6</ele>
        <time>2018-12-02T14:23:50Z</time>
      </trkpt>
      <trkpt lat="42.708216" lon="0.988430">
        <ele>2429.0</ele>
        <time>2018-12-02T14:23:58Z</time>
      </trkpt>
      <trkpt lat="42.708128" lon="0.988373">
        <ele>2427.8</ele>
        <time>2018-12-02T14:24:07Z</time>
      </trkpt>
      <trkpt lat="42.708041" lon="0.988358">
        <ele>2426.1</ele>
        <time>2018-12-02T14:24:16Z</time>
      </trkpt>
      <trkpt lat="42.707949" lon="0.988333">
        <ele>2423.9</ele>
        <time>2018-12-02T14:24:30Z</time>
      </trkpt>
      <trkpt lat="42.707859" lon="0.988273">
        <ele>2422.1</ele>
        <time>2018-12-02T14:24:40Z</time>
      </trkpt>
      <trkpt lat="42.707790" lon="0.988199">
        <ele>2420.7</ele>
        <time>2018-12-02T14:24:49Z</time>
      </trkpt>
      <trkpt lat="42.707704" lon="0.988145">
        <ele>2419.1</ele>
        <time>2018-12-02T14:24:59Z</time>
      </trkpt>
      <trkpt lat="42.707653" lon="0.988047">
        <ele>2417.7</ele>
        <time>2018-12-02T14:25:09Z</time>
      </trkpt>
      <trkpt lat="42.707579" lon="0.987969">
        <ele>2416.2</ele>
        <time>2018-12-02T14:25:17Z</time>
      </trkpt>
      <trkpt lat="42.707539" lon="0.987856">
        <ele>2413.6</ele>
        <time>2018-12-02T14:25:26Z</time>
      </trkpt>
      <trkpt lat="42.707469" lon="0.987772">
        <ele>2411.6</ele>
        <time>2018-12-02T14:25:35Z</time>
      </trkpt>
      <trkpt lat="42.707403" lon="0.987678">
        <ele>2409.5</ele>
        <time>2018-12-02T14:25:45Z</time>
      </trkpt>
      <trkpt lat="42.707348" lon="0.987571">
        <ele>2406.8</ele>
        <time>2018-12-02T14:25:55Z</time>
      </trkpt>
      <trkpt lat="42.707319" lon="0.987457">
        <ele>2404.1</ele>
        <time>2018-12-02T14:26:05Z</time>
      </trkpt>
      <trkpt lat="42.707299" lon="0.987338">
        <ele>2401.3</ele>
        <time>2018-12-02T14:26:15Z</time>
      </trkpt>
      <trkpt lat="42.707273" lon="0.987212">
        <ele>2398.9</ele>
        <time>2018-12-02T14:26:25Z</time>
      </trkpt>
      <trkpt lat="42.707272" lon="0.987079">
        <ele>2396.7</ele>
        <time>2018-12-02T14:26:35Z</time>
      </trkpt>
      <trkpt lat="42.707250" lon="0.986932">
        <ele>2394.0</ele>
        <time>2018-12-02T14:26:44Z</time>
      </trkpt>
      <trkpt lat="42.707235" lon="0.986810">
        <ele>2391.6</ele>
        <time>2018-12-02T14:26:53Z</time>
      </trkpt>
      <trkpt lat="42.707226" lon="0.986687">
        <ele>2389.1</ele>
        <time>2018-12-02T14:27:02Z</time>
      </trkpt>
      <trkpt lat="42.707183" lon="0.986564">
        <ele>2386.3</ele>
        <time>2018-12-02T14:27:10Z</time>
      </trkpt>
      <trkpt lat="42.707149" lon="0.986443">
        <ele>2384.3</ele>
        <time>2018-12-02T14:27:18Z</time>
      </trkpt>
      <trkpt lat="42.707122" lon="0.986324">
        <ele>2382.4</ele>
        <time>2018-12-02T14:27:26Z</time>
      </trkpt>
      <trkpt lat="42.707092" lon="0.986199">
        <ele>2380.7</ele>
        <time>2018-12-02T14:27:36Z</time>
      </trkpt>
      <trkpt lat="42.707061" lon="0.986078">
        <ele>2380.0</ele>
        <time>2018-12-02T14:27:44Z</time>
      </trkpt>
      <trkpt lat="42.707033" lon="0.985952">
        <ele>2378.5</ele>
        <time>2018-12-02T14:27:53Z</time>
      </trkpt>
      <trkpt lat="42.706997" lon="0.985833">
        <ele>2377.5</ele>
        <time>2018-12-02T14:28:02Z</time>
      </trkpt>
      <trkpt lat="42.706970" lon="0.985722">
        <ele>2376.8</ele>
        <time>2018-12-02T14:28:13Z</time>
      </trkpt>
      <trkpt lat="42.706943" lon="0.985600">
        <ele>2375.9</ele>
        <time>2018-12-02T14:28:22Z</time>
      </trkpt>
      <trkpt lat="42.706915" lon="0.985482">
        <ele>2374.8</ele>
        <time>2018-12-02T14:28:30Z</time>
      </trkpt>
      <trkpt lat="42.706882" lon="0.985353">
        <ele>2373.6</ele>
        <time>2018-12-02T14:28:39Z</time>
      </trkpt>
      <trkpt lat="42.706851" lon="0.985248">
        <ele>2372.6</ele>
        <time>2018-12-02T14:28:47Z</time>
      </trkpt>
      <trkpt lat="42.706813" lon="0.985132">
        <ele>2371.2</ele>
        <time>2018-12-02T14:28:55Z</time>
      </trkpt>
      <trkpt lat="42.706780" lon="0.984990">
        <ele>2369.7</ele>
        <time>2018-12-02T14:29:05Z</time>
      </trkpt>
      <trkpt lat="42.706748" lon="0.984872">
        <ele>2368.7</ele>
        <time>2018-12-02T14:29:14Z</time>
      </trkpt>
      <trkpt lat="42.706716" lon="0.984746">
        <ele>2367.3</ele>
        <time>2018-12-02T14:29:24Z</time>
      </trkpt>
      <trkpt lat="42.706690" lon="0.984624">
        <ele>2366.6</ele>
        <time>2018-12-02T14:29:33Z</time>
      </trkpt>
      <trkpt lat="42.706659" lon="0.984492">
        <ele>2364.8</ele>
        <time>2018-12-02T14:29:44Z</time>
      </trkpt>
      <trkpt lat="42.706643" lon="0.984386">
        <ele>2363.4</ele>
        <time>2018-12-02T14:29:56Z</time>
      </trkpt>
      <trkpt lat="42.706639" lon="0.984365">
        <ele>2362.4</ele>
        <time>2018-12-02T14:34:03Z</time>
      </trkpt>
      <trkpt lat="42.706613" lon="0.984247">
        <ele>2361.8</ele>
        <time>2018-12-02T14:34:52Z</time>
      </trkpt>
      <trkpt lat="42.706577" lon="0.984141">
        <ele>2360.7</ele>
        <time>2018-12-02T14:35:01Z</time>
      </trkpt>
      <trkpt lat="42.706548" lon="0.984020">
        <ele>2359.2</ele>
        <time>2018-12-02T14:35:10Z</time>
      </trkpt>
      <trkpt lat="42.706498" lon="0.983920">
        <ele>2358.0</ele>
        <time>2018-12-02T14:35:19Z</time>
      </trkpt>
      <trkpt lat="42.706446" lon="0.983816">
        <ele>2356.7</ele>
        <time>2018-12-02T14:35:28Z</time>
      </trkpt>
      <trkpt lat="42.706408" lon="0.983699">
        <ele>2354.4</ele>
        <time>2018-12-02T14:35:37Z</time>
      </trkpt>
      <trkpt lat="42.706380" lon="0.983588">
        <ele>2352.3</ele>
        <time>2018-12-02T14:35:46Z</time>
      </trkpt>
      <trkpt lat="42.706369" lon="0.983451">
        <ele>2350.3</ele>
        <time>2018-12-02T14:35:55Z</time>
      </trkpt>
      <trkpt lat="42.706357" lon="0.983310">
        <ele>2348.6</ele>
        <time>2018-12-02T14:36:05Z</time>
      </trkpt>
      <trkpt lat="42.706319" lon="0.983184">
        <ele>2347.4</ele>
        <time>2018-12-02T14:36:14Z</time>
      </trkpt>
      <trkpt lat="42.706298" lon="0.983084">
        <ele>2344.9</ele>
        <time>2018-12-02T14:37:25Z</time>
      </trkpt>
      <trkpt lat="42.706224" lon="0.983012">
        <ele>2344.5</ele>
        <time>2018-12-02T14:38:20Z</time>
      </trkpt>
      <trkpt lat="42.706142" lon="0.982959">
        <ele>2342.9</ele>
        <time>2018-12-02T14:38:31Z</time>
      </trkpt>
      <trkpt lat="42.706064" lon="0.982904">
        <ele>2341.4</ele>
        <time>2018-12-02T14:38:42Z</time>
      </trkpt>
      <trkpt lat="42.705980" lon="0.982854">
        <ele>2340.4</ele>
        <time>2018-12-02T14:38:51Z</time>
      </trkpt>
      <trkpt lat="42.705897" lon="0.982823">
        <ele>2338.8</ele>
        <time>2018-12-02T14:39:01Z</time>
      </trkpt>
      <trkpt lat="42.705809" lon="0.982782">
        <ele>2336.8</ele>
        <time>2018-12-02T14:39:13Z</time>
      </trkpt>
      <trkpt lat="42.705734" lon="0.982715">
        <ele>2335.2</ele>
        <time>2018-12-02T14:39:58Z</time>
      </trkpt>
      <trkpt lat="42.705641" lon="0.982606">
        <ele>2329.6</ele>
        <time>2018-12-02T14:40:49Z</time>
      </trkpt>
      <trkpt lat="42.705561" lon="0.982662">
        <ele>2327.4</ele>
        <time>2018-12-02T14:41:03Z</time>
      </trkpt>
      <trkpt lat="42.705476" lon="0.982684">
        <ele>2325.1</ele>
        <time>2018-12-02T14:41:15Z</time>
      </trkpt>
      <trkpt lat="42.705391" lon="0.982607">
        <ele>2322.3</ele>
        <time>2018-12-02T14:41:25Z</time>
      </trkpt>
      <trkpt lat="42.705310" lon="0.982529">
        <ele>2319.1</ele>
        <time>2018-12-02T14:41:35Z</time>
      </trkpt>
      <trkpt lat="42.705267" lon="0.982430">
        <ele>2315.7</ele>
        <time>2018-12-02T14:41:47Z</time>
      </trkpt>
      <trkpt lat="42.705235" lon="0.982309">
        <ele>2314.4</ele>
        <time>2018-12-02T14:41:57Z</time>
      </trkpt>
      <trkpt lat="42.705211" lon="0.982182">
        <ele>2313.0</ele>
        <time>2018-12-02T14:42:06Z</time>
      </trkpt>
      <trkpt lat="42.705173" lon="0.982061">
        <ele>2311.3</ele>
        <time>2018-12-02T14:42:15Z</time>
      </trkpt>
      <trkpt lat="42.705129" lon="0.981945">
        <ele>2309.7</ele>
        <time>2018-12-02T14:42:25Z</time>
      </trkpt>
      <trkpt lat="42.705082" lon="0.981835">
        <ele>2308.2</ele>
        <time>2018-12-02T14:42:34Z</time>
      </trkpt>
      <trkpt lat="42.705043" lon="0.981724">
        <ele>2306.7</ele>
        <time>2018-12-02T14:42:45Z</time>
      </trkpt>
      <trkpt lat="42.705019" lon="0.981596">
        <ele>2306.4</ele>
        <time>2018-12-02T14:42:58Z</time>
      </trkpt>
      <trkpt lat="42.704997" lon="0.981487">
        <ele>2305.4</ele>
        <time>2018-12-02T14:43:08Z</time>
      </trkpt>
      <trkpt lat="42.704967" lon="0.981381">
        <ele>2302.7</ele>
        <time>2018-12-02T14:43:20Z</time>
      </trkpt>
      <trkpt lat="42.704925" lon="0.981266">
        <ele>2299.5</ele>
        <time>2018-12-02T14:43:30Z</time>
      </trkpt>
      <trkpt lat="42.704900" lon="0.981149">
        <ele>2295.4</ele>
        <time>2018-12-02T14:43:37Z</time>
      </trkpt>
      <trkpt lat="42.704873" lon="0.981024">
        <ele>2291.0</ele>
        <time>2018-12-02T14:43:45Z</time>
      </trkpt>
      <trkpt lat="42.704792" lon="0.980931">
        <ele>2286.6</ele>
        <time>2018-12-02T14:43:54Z</time>
      </trkpt>
      <trkpt lat="42.704726" lon="0.980819">
        <ele>2282.5</ele>
        <time>2018-12-02T14:44:02Z</time>
      </trkpt>
      <trkpt lat="42.704719" lon="0.980713">
        <ele>2277.9</ele>
        <time>2018-12-02T14:44:49Z</time>
      </trkpt>
      <trkpt lat="42.704666" lon="0.980592">
        <ele>2276.3</ele>
        <time>2018-12-02T14:44:58Z</time>
      </trkpt>
      <trkpt lat="42.704614" lon="0.980492">
        <ele>2273.3</ele>
        <time>2018-12-02T14:45:11Z</time>
      </trkpt>
      <trkpt lat="42.704549" lon="0.980422">
        <ele>2270.6</ele>
        <time>2018-12-02T14:45:20Z</time>
      </trkpt>
      <trkpt lat="42.704487" lon="0.980333">
        <ele>2267.4</ele>
        <time>2018-12-02T14:45:30Z</time>
      </trkpt>
      <trkpt lat="42.704439" lon="0.980226">
        <ele>2263.9</ele>
        <time>2018-12-02T14:45:41Z</time>
      </trkpt>
      <trkpt lat="42.704457" lon="0.980099">
        <ele>2262.0</ele>
        <time>2018-12-02T14:46:16Z</time>
      </trkpt>
      <trkpt lat="42.704494" lon="0.979956">
        <ele>2260.8</ele>
        <time>2018-12-02T14:46:25Z</time>
      </trkpt>
      <trkpt lat="42.704547" lon="0.979848">
        <ele>2258.3</ele>
        <time>2018-12-02T14:46:35Z</time>
      </trkpt>
      <trkpt lat="42.704547" lon="0.979727">
        <ele>2256.4</ele>
        <time>2018-12-02T14:46:45Z</time>
      </trkpt>
      <trkpt lat="42.704553" lon="0.979589">
        <ele>2253.9</ele>
        <time>2018-12-02T14:46:54Z</time>
      </trkpt>
      <trkpt lat="42.704575" lon="0.979471">
        <ele>2251.4</ele>
        <time>2018-12-02T14:47:03Z</time>
      </trkpt>
      <trkpt lat="42.704578" lon="0.979355">
        <ele>2245.4</ele>
        <time>2018-12-02T14:47:21Z</time>
      </trkpt>
      <trkpt lat="42.704558" lon="0.979265">
        <ele>2243.6</ele>
        <time>2018-12-02T14:47:30Z</time>
      </trkpt>
      <trkpt lat="42.704597" lon="0.979140">
        <ele>2239.3</ele>
        <time>2018-12-02T14:47:41Z</time>
      </trkpt>
      <trkpt lat="42.704558" lon="0.979013">
        <ele>2236.0</ele>
        <time>2018-12-02T14:47:53Z</time>
      </trkpt>
      <trkpt lat="42.704488" lon="0.978951">
        <ele>2232.1</ele>
        <time>2018-12-02T14:48:05Z</time>
      </trkpt>
      <trkpt lat="42.704457" lon="0.978841">
        <ele>2227.5</ele>
        <time>2018-12-02T14:48:20Z</time>
      </trkpt>
      <trkpt lat="42.704396" lon="0.978733">
        <ele>2224.4</ele>
        <time>2018-12-02T14:48:32Z</time>
      </trkpt>
      <trkpt lat="42.704308" lon="0.978694">
        <ele>2220.7</ele>
        <time>2018-12-02T14:48:44Z</time>
      </trkpt>
      <trkpt lat="42.704226" lon="0.978637">
        <ele>2216.7</ele>
        <time>2018-12-02T14:48:55Z</time>
      </trkpt>
      <trkpt lat="42.704137" lon="0.978584">
        <ele>2212.9</ele>
        <time>2018-12-02T14:49:05Z</time>
      </trkpt>
      <trkpt lat="42.704092" lon="0.978477">
        <ele>2210.1</ele>
        <time>2018-12-02T14:49:13Z</time>
      </trkpt>
      <trkpt lat="42.704043" lon="0.978362">
        <ele>2207.3</ele>
        <time>2018-12-02T14:49:22Z</time>
      </trkpt>
      <trkpt lat="42.703963" lon="0.978302">
        <ele>2204.4</ele>
        <time>2018-12-02T14:49:33Z</time>
      </trkpt>
      <trkpt lat="42.703932" lon="0.978281">
        <ele>2202.0</ele>
        <time>2018-12-02T14:52:18Z</time>
      </trkpt>
      <trkpt lat="42.703854" lon="0.978301">
        <ele>2201.4</ele>
        <time>2018-12-02T14:52:34Z</time>
      </trkpt>
      <trkpt lat="42.703776" lon="0.978379">
        <ele>2201.8</ele>
        <time>2018-12-02T14:52:49Z</time>
      </trkpt>
      <trkpt lat="42.703715" lon="0.978479">
        <ele>2202.1</ele>
        <time>2018-12-02T14:53:31Z</time>
      </trkpt>
      <trkpt lat="42.703654" lon="0.978587">
        <ele>2201.9</ele>
        <time>2018-12-02T14:53:43Z</time>
      </trkpt>
      <trkpt lat="42.703592" lon="0.978677">
        <ele>2201.3</ele>
        <time>2018-12-02T14:54:15Z</time>
      </trkpt>
      <trkpt lat="42.703553" lon="0.978794">
        <ele>2201.4</ele>
        <time>2018-12-02T14:54:29Z</time>
      </trkpt>
      <trkpt lat="42.703530" lon="0.978926">
        <ele>2200.9</ele>
        <time>2018-12-02T14:54:41Z</time>
      </trkpt>
      <trkpt lat="42.703479" lon="0.979037">
        <ele>2199.6</ele>
        <time>2018-12-02T14:54:59Z</time>
      </trkpt>
      <trkpt lat="42.703391" lon="0.979143">
        <ele>2199.3</ele>
        <time>2018-12-02T14:55:10Z</time>
      </trkpt>
      <trkpt lat="42.703305" lon="0.979188">
        <ele>2198.4</ele>
        <time>2018-12-02T14:55:18Z</time>
      </trkpt>
      <trkpt lat="42.703215" lon="0.979205">
        <ele>2196.9</ele>
        <time>2018-12-02T14:55:27Z</time>
      </trkpt>
      <trkpt lat="42.703111" lon="0.979171">
        <ele>2194.7</ele>
        <time>2018-12-02T14:55:36Z</time>
      </trkpt>
      <trkpt lat="42.703015" lon="0.979127">
        <ele>2192.3</ele>
        <time>2018-12-02T14:55:44Z</time>
      </trkpt>
      <trkpt lat="42.702983" lon="0.979007">
        <ele>2189.6</ele>
        <time>2018-12-02T14:55:52Z</time>
      </trkpt>
      <trkpt lat="42.702956" lon="0.978890">
        <ele>2186.9</ele>
        <time>2018-12-02T14:56:00Z</time>
      </trkpt>
      <trkpt lat="42.702898" lon="0.978799">
        <ele>2184.1</ele>
        <time>2018-12-02T14:56:07Z</time>
      </trkpt>
      <trkpt lat="42.702817" lon="0.978746">
        <ele>2181.1</ele>
        <time>2018-12-02T14:56:15Z</time>
      </trkpt>
      <trkpt lat="42.702731" lon="0.978747">
        <ele>2178.4</ele>
        <time>2018-12-02T14:56:25Z</time>
      </trkpt>
      <trkpt lat="42.702641" lon="0.978787">
        <ele>2174.9</ele>
        <time>2018-12-02T14:56:36Z</time>
      </trkpt>
      <trkpt lat="42.702537" lon="0.978781">
        <ele>2170.3</ele>
        <time>2018-12-02T14:56:48Z</time>
      </trkpt>
      <trkpt lat="42.702432" lon="0.978780">
        <ele>2167.0</ele>
        <time>2018-12-02T14:57:01Z</time>
      </trkpt>
      <trkpt lat="42.702442" lon="0.978677">
        <ele>2165.8</ele>
        <time>2018-12-02T14:57:40Z</time>
      </trkpt>
      <trkpt lat="42.702448" lon="0.978567">
        <ele>2164.4</ele>
        <time>2018-12-02T14:57:50Z</time>
      </trkpt>
      <trkpt lat="42.702498" lon="0.978423">
        <ele>2161.7</ele>
        <time>2018-12-02T14:58:00Z</time>
      </trkpt>
      <trkpt lat="42.702512" lon="0.978286">
        <ele>2158.1</ele>
        <time>2018-12-02T14:58:10Z</time>
      </trkpt>
      <trkpt lat="42.702538" lon="0.978192">
        <ele>2154.6</ele>
        <time>2018-12-02T14:58:21Z</time>
      </trkpt>
      <trkpt lat="42.702512" lon="0.978073">
        <ele>2150.2</ele>
        <time>2018-12-02T14:58:30Z</time>
      </trkpt>
      <trkpt lat="42.702442" lon="0.977980">
        <ele>2144.9</ele>
        <time>2018-12-02T14:58:41Z</time>
      </trkpt>
      <trkpt lat="42.702356" lon="0.977935">
        <ele>2142.6</ele>
        <time>2018-12-02T14:58:51Z</time>
      </trkpt>
      <trkpt lat="42.702254" lon="0.977958">
        <ele>2141.4</ele>
        <time>2018-12-02T14:59:01Z</time>
      </trkpt>
      <trkpt lat="42.702185" lon="0.978031">
        <ele>2139.0</ele>
        <time>2018-12-02T14:59:17Z</time>
      </trkpt>
      <trkpt lat="42.702125" lon="0.978119">
        <ele>2137.9</ele>
        <time>2018-12-02T14:59:44Z</time>
      </trkpt>
      <trkpt lat="42.702050" lon="0.978179">
        <ele>2135.9</ele>
        <time>2018-12-02T14:59:53Z</time>
      </trkpt>
      <trkpt lat="42.701957" lon="0.978182">
        <ele>2133.5</ele>
        <time>2018-12-02T15:00:02Z</time>
      </trkpt>
      <trkpt lat="42.701861" lon="0.978152">
        <ele>2130.3</ele>
        <time>2018-12-02T15:00:12Z</time>
      </trkpt>
      <trkpt lat="42.701777" lon="0.978151">
        <ele>2127.4</ele>
        <time>2018-12-02T15:00:21Z</time>
      </trkpt>
      <trkpt lat="42.701695" lon="0.978131">
        <ele>2125.1</ele>
        <time>2018-12-02T15:00:29Z</time>
      </trkpt>
      <trkpt lat="42.701685" lon="0.978024">
        <ele>2122.3</ele>
        <time>2018-12-02T15:00:39Z</time>
      </trkpt>
      <trkpt lat="42.701670" lon="0.977894">
        <ele>2121.1</ele>
        <time>2018-12-02T15:01:21Z</time>
      </trkpt>
      <trkpt lat="42.701634" lon="0.977781">
        <ele>2120.5</ele>
        <time>2018-12-02T15:01:31Z</time>
      </trkpt>
      <trkpt lat="42.701651" lon="0.977648">
        <ele>2119.0</ele>
        <time>2018-12-02T15:01:45Z</time>
      </trkpt>
      <trkpt lat="42.701640" lon="0.977518">
        <ele>2117.3</ele>
        <time>2018-12-02T15:01:56Z</time>
      </trkpt>
      <trkpt lat="42.701651" lon="0.977386">
        <ele>2114.8</ele>
        <time>2018-12-02T15:02:06Z</time>
      </trkpt>
      <trkpt lat="42.701644" lon="0.977255">
        <ele>2112.2</ele>
        <time>2018-12-02T15:02:18Z</time>
      </trkpt>
      <trkpt lat="42.701656" lon="0.977122">
        <ele>2109.4</ele>
        <time>2018-12-02T15:02:30Z</time>
      </trkpt>
      <trkpt lat="42.701645" lon="0.977003">
        <ele>2106.4</ele>
        <time>2018-12-02T15:02:44Z</time>
      </trkpt>
      <trkpt lat="42.701556" lon="0.976952">
        <ele>2104.5</ele>
        <time>2018-12-02T15:02:55Z</time>
      </trkpt>
      <trkpt lat="42.701466" lon="0.976957">
        <ele>2102.3</ele>
        <time>2018-12-02T15:03:06Z</time>
      </trkpt>
      <trkpt lat="42.701375" lon="0.976936">
        <ele>2099.2</ele>
        <time>2018-12-02T15:03:20Z</time>
      </trkpt>
      <trkpt lat="42.701343" lon="0.976891">
        <ele>2098.5</ele>
        <time>2018-12-02T15:05:31Z</time>
      </trkpt>
      <trkpt lat="42.701238" lon="0.976932">
        <ele>2097.1</ele>
        <time>2018-12-02T15:05:43Z</time>
      </trkpt>
      <trkpt lat="42.701151" lon="0.976942">
        <ele>2095.6</ele>
        <time>2018-12-02T15:05:52Z</time>
      </trkpt>
      <trkpt lat="42.701057" lon="0.976880">
        <ele>2092.7</ele>
        <time>2018-12-02T15:06:04Z</time>
      </trkpt>
      <trkpt lat="42.700945" lon="0.976810">
        <ele>2090.2</ele>
        <time>2018-12-02T15:06:13Z</time>
      </trkpt>
      <trkpt lat="42.700888" lon="0.976708">
        <ele>2087.8</ele>
        <time>2018-12-02T15:06:21Z</time>
      </trkpt>
      <trkpt lat="42.700829" lon="0.976600">
        <ele>2086.5</ele>
        <time>2018-12-02T15:06:29Z</time>
      </trkpt>
      <trkpt lat="42.700798" lon="0.976481">
        <ele>2086.0</ele>
        <time>2018-12-02T15:06:37Z</time>
      </trkpt>
      <trkpt lat="42.700813" lon="0.976343">
        <ele>2084.9</ele>
        <time>2018-12-02T15:06:45Z</time>
      </trkpt>
      <trkpt lat="42.700853" lon="0.976208">
        <ele>2083.3</ele>
        <time>2018-12-02T15:06:52Z</time>
      </trkpt>
      <trkpt lat="42.700918" lon="0.976118">
        <ele>2081.6</ele>
        <time>2018-12-02T15:06:58Z</time>
      </trkpt>
      <trkpt lat="42.700983" lon="0.976027">
        <ele>2079.4</ele>
        <time>2018-12-02T15:07:05Z</time>
      </trkpt>
      <trkpt lat="42.701055" lon="0.975942">
        <ele>2076.6</ele>
        <time>2018-12-02T15:07:12Z</time>
      </trkpt>
      <trkpt lat="42.701130" lon="0.975856">
        <ele>2074.0</ele>
        <time>2018-12-02T15:07:18Z</time>
      </trkpt>
      <trkpt lat="42.701195" lon="0.975742">
        <ele>2071.0</ele>
        <time>2018-12-02T15:07:25Z</time>
      </trkpt>
      <trkpt lat="42.701281" lon="0.975701">
        <ele>2068.4</ele>
        <time>2018-12-02T15:07:32Z</time>
      </trkpt>
      <trkpt lat="42.701397" lon="0.975690">
        <ele>2066.9</ele>
        <time>2018-12-02T15:07:40Z</time>
      </trkpt>
      <trkpt lat="42.701478" lon="0.975630">
        <ele>2065.2</ele>
        <time>2018-12-02T15:07:47Z</time>
      </trkpt>
      <trkpt lat="42.701465" lon="0.975524">
        <ele>2060.8</ele>
        <time>2018-12-02T15:07:56Z</time>
      </trkpt>
      <trkpt lat="42.701460" lon="0.975399">
        <ele>2057.7</ele>
        <time>2018-12-02T15:08:05Z</time>
      </trkpt>
      <trkpt lat="42.701482" lon="0.975271">
        <ele>2055.0</ele>
        <time>2018-12-02T15:08:14Z</time>
      </trkpt>
      <trkpt lat="42.701477" lon="0.975310">
        <ele>2051.6</ele>
        <time>2018-12-02T15:09:10Z</time>
      </trkpt>
      <trkpt lat="42.701521" lon="0.975180">
        <ele>2050.9</ele>
        <time>2018-12-02T15:09:23Z</time>
      </trkpt>
      <trkpt lat="42.701559" lon="0.975057">
        <ele>2048.7</ele>
        <time>2018-12-02T15:09:31Z</time>
      </trkpt>
      <trkpt lat="42.701577" lon="0.974912">
        <ele>2045.5</ele>
        <time>2018-12-02T15:09:39Z</time>
      </trkpt>
      <trkpt lat="42.701611" lon="0.974771">
        <ele>2042.7</ele>
        <time>2018-12-02T15:09:47Z</time>
      </trkpt>
      <trkpt lat="42.701654" lon="0.974645">
        <ele>2039.8</ele>
        <time>2018-12-02T15:09:56Z</time>
      </trkpt>
      <trkpt lat="42.701689" lon="0.974527">
        <ele>2037.7</ele>
        <time>2018-12-02T15:10:04Z</time>
      </trkpt>
      <trkpt lat="42.701714" lon="0.974409">
        <ele>2035.6</ele>
        <time>2018-12-02T15:10:12Z</time>
      </trkpt>
      <trkpt lat="42.701718" lon="0.974278">
        <ele>2033.1</ele>
        <time>2018-12-02T15:10:20Z</time>
      </trkpt>
      <trkpt lat="42.701741" lon="0.974144">
        <ele>2030.9</ele>
        <time>2018-12-02T15:10:29Z</time>
      </trkpt>
      <trkpt lat="42.701731" lon="0.973997">
        <ele>2028.9</ele>
        <time>2018-12-02T15:10:38Z</time>
      </trkpt>
      <trkpt lat="42.701665" lon="0.973913">
        <ele>2026.9</ele>
        <time>2018-12-02T15:10:46Z</time>
      </trkpt>
      <trkpt lat="42.701599" lon="0.973855">
        <ele>2024.9</ele>
        <time>2018-12-02T15:11:22Z</time>
      </trkpt>
      <trkpt lat="42.701537" lon="0.973759">
        <ele>2024.0</ele>
        <time>2018-12-02T15:11:32Z</time>
      </trkpt>
      <trkpt lat="42.701493" lon="0.973698">
        <ele>2023.2</ele>
        <time>2018-12-02T15:11:58Z</time>
      </trkpt>
      <trkpt lat="42.701424" lon="0.973585">
        <ele>2022.9</ele>
        <time>2018-12-02T15:12:06Z</time>
      </trkpt>
      <trkpt lat="42.701388" lon="0.973454">
        <ele>2022.7</ele>
        <time>2018-12-02T15:12:16Z</time>
      </trkpt>
      <trkpt lat="42.701347" lon="0.973350">
        <ele>2022.3</ele>
        <time>2018-12-02T15:12:32Z</time>
      </trkpt>
      <trkpt lat="42.701321" lon="0.973203">
        <ele>2022.0</ele>
        <time>2018-12-02T15:12:42Z</time>
      </trkpt>
      <trkpt lat="42.701302" lon="0.973060">
        <ele>2021.9</ele>
        <time>2018-12-02T15:12:51Z</time>
      </trkpt>
      <trkpt lat="42.701275" lon="0.972930">
        <ele>2020.9</ele>
        <time>2018-12-02T15:13:00Z</time>
      </trkpt>
      <trkpt lat="42.701259" lon="0.972804">
        <ele>2019.6</ele>
        <time>2018-12-02T15:13:08Z</time>
      </trkpt>
      <trkpt lat="42.701273" lon="0.972673">
        <ele>2018.2</ele>
        <time>2018-12-02T15:13:18Z</time>
      </trkpt>
      <trkpt lat="42.701264" lon="0.972541">
        <ele>2017.7</ele>
        <time>2018-12-02T15:13:28Z</time>
      </trkpt>
      <trkpt lat="42.701270" lon="0.972396">
        <ele>2017.2</ele>
        <time>2018-12-02T15:13:36Z</time>
      </trkpt>
      <trkpt lat="42.701324" lon="0.972284">
        <ele>2016.4</ele>
        <time>2018-12-02T15:13:44Z</time>
      </trkpt>
      <trkpt lat="42.701371" lon="0.972157">
        <ele>2014.7</ele>
        <time>2018-12-02T15:13:52Z</time>
      </trkpt>
      <trkpt lat="42.701439" lon="0.972056">
        <ele>2012.9</ele>
        <time>2018-12-02T15:14:00Z</time>
      </trkpt>
      <trkpt lat="42.701532" lon="0.971966">
        <ele>2011.5</ele>
        <time>2018-12-02T15:14:09Z</time>
      </trkpt>
      <trkpt lat="42.701592" lon="0.971847">
        <ele>2010.2</ele>
        <time>2018-12-02T15:14:17Z</time>
      </trkpt>
      <trkpt lat="42.701648" lon="0.971741">
        <ele>2009.1</ele>
        <time>2018-12-02T15:14:25Z</time>
      </trkpt>
      <trkpt lat="42.701704" lon="0.971617">
        <ele>2007.5</ele>
        <time>2018-12-02T15:14:32Z</time>
      </trkpt>
      <trkpt lat="42.701728" lon="0.971485">
        <ele>2005.8</ele>
        <time>2018-12-02T15:14:39Z</time>
      </trkpt>
      <trkpt lat="42.701750" lon="0.971338">
        <ele>2003.8</ele>
        <time>2018-12-02T15:14:46Z</time>
      </trkpt>
      <trkpt lat="42.701784" lon="0.971230">
        <ele>2002.4</ele>
        <time>2018-12-02T15:14:53Z</time>
      </trkpt>
      <trkpt lat="42.701812" lon="0.971117">
        <ele>2001.4</ele>
        <time>2018-12-02T15:15:00Z</time>
      </trkpt>
      <trkpt lat="42.701831" lon="0.970979">
        <ele>1999.0</ele>
        <time>2018-12-02T15:15:08Z</time>
      </trkpt>
      <trkpt lat="42.701861" lon="0.970848">
        <ele>1996.7</ele>
        <time>2018-12-02T15:15:16Z</time>
      </trkpt>
      <trkpt lat="42.701900" lon="0.970718">
        <ele>1994.4</ele>
        <time>2018-12-02T15:15:23Z</time>
      </trkpt>
      <trkpt lat="42.701935" lon="0.970617">
        <ele>1991.9</ele>
        <time>2018-12-02T15:15:30Z</time>
      </trkpt>
      <trkpt lat="42.701953" lon="0.970487">
        <ele>1989.0</ele>
        <time>2018-12-02T15:15:37Z</time>
      </trkpt>
      <trkpt lat="42.701983" lon="0.970355">
        <ele>1986.2</ele>
        <time>2018-12-02T15:15:45Z</time>
      </trkpt>
      <trkpt lat="42.702055" lon="0.970261">
        <ele>1983.6</ele>
        <time>2018-12-02T15:15:54Z</time>
      </trkpt>
      <trkpt lat="42.702152" lon="0.970207">
        <ele>1982.1</ele>
        <time>2018-12-02T15:16:02Z</time>
      </trkpt>
      <trkpt lat="42.702240" lon="0.970153">
        <ele>1980.9</ele>
        <time>2018-12-02T15:16:10Z</time>
      </trkpt>
      <trkpt lat="42.702302" lon="0.970055">
        <ele>1979.4</ele>
        <time>2018-12-02T15:16:19Z</time>
      </trkpt>
      <trkpt lat="42.702367" lon="0.969966">
        <ele>1978.7</ele>
        <time>2018-12-02T15:16:26Z</time>
      </trkpt>
      <trkpt lat="42.702418" lon="0.969849">
        <ele>1977.9</ele>
        <time>2018-12-02T15:16:34Z</time>
      </trkpt>
      <trkpt lat="42.702468" lon="0.969738">
        <ele>1976.9</ele>
        <time>2018-12-02T15:16:42Z</time>
      </trkpt>
      <trkpt lat="42.702552" lon="0.969669">
        <ele>1974.5</ele>
        <time>2018-12-02T15:16:50Z</time>
      </trkpt>
      <trkpt lat="42.702647" lon="0.969631">
        <ele>1972.0</ele>
        <time>2018-12-02T15:16:59Z</time>
      </trkpt>
      <trkpt lat="42.702732" lon="0.969553">
        <ele>1968.4</ele>
        <time>2018-12-02T15:17:08Z</time>
      </trkpt>
      <trkpt lat="42.702798" lon="0.969474">
        <ele>1964.0</ele>
        <time>2018-12-02T15:17:17Z</time>
      </trkpt>
      <trkpt lat="42.702881" lon="0.969407">
        <ele>1959.9</ele>
        <time>2018-12-02T15:17:25Z</time>
      </trkpt>
      <trkpt lat="42.702959" lon="0.969341">
        <ele>1956.1</ele>
        <time>2018-12-02T15:17:34Z</time>
      </trkpt>
      <trkpt lat="42.703046" lon="0.969268">
        <ele>1954.1</ele>
        <time>2018-12-02T15:17:42Z</time>
      </trkpt>
      <trkpt lat="42.703130" lon="0.969207">
        <ele>1952.1</ele>
        <time>2018-12-02T15:17:50Z</time>
      </trkpt>
      <trkpt lat="42.703216" lon="0.969153">
        <ele>1950.6</ele>
        <time>2018-12-02T15:17:59Z</time>
      </trkpt>
      <trkpt lat="42.703309" lon="0.969088">
        <ele>1948.9</ele>
        <time>2018-12-02T15:18:06Z</time>
      </trkpt>
      <trkpt lat="42.703329" lon="0.968958">
        <ele>1947.2</ele>
        <time>2018-12-02T15:18:14Z</time>
      </trkpt>
      <trkpt lat="42.703316" lon="0.968835">
        <ele>1947.2</ele>
        <time>2018-12-02T15:18:21Z</time>
      </trkpt>
      <trkpt lat="42.703308" lon="0.968716">
        <ele>1946.3</ele>
        <time>2018-12-02T15:18:28Z</time>
      </trkpt>
      <trkpt lat="42.703273" lon="0.968588">
        <ele>1945.1</ele>
        <time>2018-12-02T15:18:36Z</time>
      </trkpt>
      <trkpt lat="42.703234" lon="0.968467">
        <ele>1944.0</ele>
        <time>2018-12-02T15:18:45Z</time>
      </trkpt>
      <trkpt lat="42.703173" lon="0.968367">
        <ele>1942.8</ele>
        <time>2018-12-02T15:18:53Z</time>
      </trkpt>
      <trkpt lat="42.703078" lon="0.968264">
        <ele>1940.2</ele>
        <time>2018-12-02T15:19:02Z</time>
      </trkpt>
      <trkpt lat="42.702998" lon="0.968176">
        <ele>1937.4</ele>
        <time>2018-12-02T15:19:10Z</time>
      </trkpt>
      <trkpt lat="42.702953" lon="0.968065">
        <ele>1935.1</ele>
        <time>2018-12-02T15:19:17Z</time>
      </trkpt>
      <trkpt lat="42.702929" lon="0.967952">
        <ele>1933.5</ele>
        <time>2018-12-02T15:19:24Z</time>
      </trkpt>
      <trkpt lat="42.702885" lon="0.967833">
        <ele>1931.6</ele>
        <time>2018-12-02T15:19:32Z</time>
      </trkpt>
      <trkpt lat="42.702855" lon="0.967705">
        <ele>1929.7</ele>
        <time>2018-12-02T15:19:40Z</time>
      </trkpt>
      <trkpt lat="42.702831" lon="0.967568">
        <ele>1928.0</ele>
        <time>2018-12-02T15:19:48Z</time>
      </trkpt>
      <trkpt lat="42.702828" lon="0.967441">
        <ele>1927.2</ele>
        <time>2018-12-02T15:19:55Z</time>
      </trkpt>
      <trkpt lat="42.702830" lon="0.967301">
        <ele>1926.7</ele>
        <time>2018-12-02T15:20:04Z</time>
      </trkpt>
      <trkpt lat="42.702831" lon="0.967169">
        <ele>1926.1</ele>
        <time>2018-12-02T15:20:12Z</time>
      </trkpt>
      <trkpt lat="42.702850" lon="0.967038">
        <ele>1925.7</ele>
        <time>2018-12-02T15:20:20Z</time>
      </trkpt>
      <trkpt lat="42.702868" lon="0.966919">
        <ele>1925.3</ele>
        <time>2018-12-02T15:20:27Z</time>
      </trkpt>
      <trkpt lat="42.702864" lon="0.966794">
        <ele>1925.1</ele>
        <time>2018-12-02T15:20:35Z</time>
      </trkpt>
      <trkpt lat="42.702841" lon="0.966652">
        <ele>1924.8</ele>
        <time>2018-12-02T15:20:43Z</time>
      </trkpt>
      <trkpt lat="42.702817" lon="0.966525">
        <ele>1924.6</ele>
        <time>2018-12-02T15:20:50Z</time>
      </trkpt>
      <trkpt lat="42.702801" lon="0.966400">
        <ele>1924.1</ele>
        <time>2018-12-02T15:20:59Z</time>
      </trkpt>
      <trkpt lat="42.702781" lon="0.966297">
        <ele>1923.6</ele>
        <time>2018-12-02T15:21:06Z</time>
      </trkpt>
      <trkpt lat="42.702757" lon="0.966181">
        <ele>1922.5</ele>
        <time>2018-12-02T15:21:14Z</time>
      </trkpt>
      <trkpt lat="42.702727" lon="0.966062">
        <ele>1921.5</ele>
        <time>2018-12-02T15:21:25Z</time>
      </trkpt>
      <trkpt lat="42.702689" lon="0.965958">
        <ele>1921.8</ele>
        <time>2018-12-02T15:21:38Z</time>
      </trkpt>
      <trkpt lat="42.702736" lon="0.965821">
        <ele>1923.4</ele>
        <time>2018-12-02T15:21:50Z</time>
      </trkpt>
      <trkpt lat="42.702797" lon="0.965703">
        <ele>1923.8</ele>
        <time>2018-12-02T15:22:01Z</time>
      </trkpt>
      <trkpt lat="42.702861" lon="0.965584">
        <ele>1923.6</ele>
        <time>2018-12-02T15:22:10Z</time>
      </trkpt>
      <trkpt lat="42.702927" lon="0.965484">
        <ele>1923.5</ele>
        <time>2018-12-02T15:22:20Z</time>
      </trkpt>
      <trkpt lat="42.702991" lon="0.965371">
        <ele>1923.2</ele>
        <time>2018-12-02T15:22:29Z</time>
      </trkpt>
      <trkpt lat="42.703067" lon="0.965230">
        <ele>1923.2</ele>
        <time>2018-12-02T15:22:39Z</time>
      </trkpt>
      <trkpt lat="42.703075" lon="0.965101">
        <ele>1922.9</ele>
        <time>2018-12-02T15:22:48Z</time>
      </trkpt>
      <trkpt lat="42.703077" lon="0.964976">
        <ele>1922.9</ele>
        <time>2018-12-02T15:22:56Z</time>
      </trkpt>
      <trkpt lat="42.703039" lon="0.964860">
        <ele>1922.8</ele>
        <time>2018-12-02T15:23:06Z</time>
      </trkpt>
      <trkpt lat="42.702967" lon="0.964753">
        <ele>1922.8</ele>
        <time>2018-12-02T15:23:15Z</time>
      </trkpt>
      <trkpt lat="42.702893" lon="0.964666">
        <ele>1922.6</ele>
        <time>2018-12-02T15:23:24Z</time>
      </trkpt>
      <trkpt lat="42.702827" lon="0.964569">
        <ele>1922.2</ele>
        <time>2018-12-02T15:23:32Z</time>
      </trkpt>
      <trkpt lat="42.702773" lon="0.964462">
        <ele>1922.1</ele>
        <time>2018-12-02T15:23:41Z</time>
      </trkpt>
      <trkpt lat="42.702707" lon="0.964360">
        <ele>1921.7</ele>
        <time>2018-12-02T15:23:50Z</time>
      </trkpt>
      <trkpt lat="42.702645" lon="0.964261">
        <ele>1921.5</ele>
        <time>2018-12-02T15:23:58Z</time>
      </trkpt>
      <trkpt lat="42.702635" lon="0.964134">
        <ele>1921.3</ele>
        <time>2018-12-02T15:24:06Z</time>
      </trkpt>
      <trkpt lat="42.702658" lon="0.963984">
        <ele>1920.7</ele>
        <time>2018-12-02T15:24:15Z</time>
      </trkpt>
      <trkpt lat="42.702701" lon="0.963860">
        <ele>1920.0</ele>
        <time>2018-12-02T15:24:23Z</time>
      </trkpt>
      <trkpt lat="42.702746" lon="0.963747">
        <ele>1919.4</ele>
        <time>2018-12-02T15:24:31Z</time>
      </trkpt>
      <trkpt lat="42.702786" lon="0.963610">
        <ele>1919.0</ele>
        <time>2018-12-02T15:24:39Z</time>
      </trkpt>
      <trkpt lat="42.702813" lon="0.963475">
        <ele>1918.1</ele>
        <time>2018-12-02T15:24:46Z</time>
      </trkpt>
      <trkpt lat="42.702844" lon="0.963366">
        <ele>1916.9</ele>
        <time>2018-12-02T15:24:54Z</time>
      </trkpt>
      <trkpt lat="42.702868" lon="0.963253">
        <ele>1916.1</ele>
        <time>2018-12-02T15:25:02Z</time>
      </trkpt>
      <trkpt lat="42.702893" lon="0.963134">
        <ele>1915.2</ele>
        <time>2018-12-02T15:25:11Z</time>
      </trkpt>
      <trkpt lat="42.702919" lon="0.963006">
        <ele>1914.5</ele>
        <time>2018-12-02T15:25:19Z</time>
      </trkpt>
      <trkpt lat="42.702932" lon="0.962878">
        <ele>1913.7</ele>
        <time>2018-12-02T15:25:27Z</time>
      </trkpt>
      <trkpt lat="42.702956" lon="0.962757">
        <ele>1913.1</ele>
        <time>2018-12-02T15:25:35Z</time>
      </trkpt>
      <trkpt lat="42.702971" lon="0.962621">
        <ele>1912.3</ele>
        <time>2018-12-02T15:25:44Z</time>
      </trkpt>
      <trkpt lat="42.702987" lon="0.962479">
        <ele>1911.7</ele>
        <time>2018-12-02T15:25:52Z</time>
      </trkpt>
      <trkpt lat="42.703007" lon="0.962350">
        <ele>1911.5</ele>
        <time>2018-12-02T15:26:00Z</time>
      </trkpt>
      <trkpt lat="42.703034" lon="0.962243">
        <ele>1911.1</ele>
        <time>2018-12-02T15:26:08Z</time>
      </trkpt>
      <trkpt lat="42.703062" lon="0.962128">
        <ele>1910.7</ele>
        <time>2018-12-02T15:26:16Z</time>
      </trkpt>
      <trkpt lat="42.703100" lon="0.961994">
        <ele>1909.4</ele>
        <time>2018-12-02T15:26:24Z</time>
      </trkpt>
      <trkpt lat="42.703136" lon="0.961881">
        <ele>1907.7</ele>
        <time>2018-12-02T15:26:32Z</time>
      </trkpt>
      <trkpt lat="42.703184" lon="0.961766">
        <ele>1906.3</ele>
        <time>2018-12-02T15:26:41Z</time>
      </trkpt>
      <trkpt lat="42.703231" lon="0.961649">
        <ele>1905.4</ele>
        <time>2018-12-02T15:26:50Z</time>
      </trkpt>
      <trkpt lat="42.703285" lon="0.961541">
        <ele>1904.4</ele>
        <time>2018-12-02T15:26:58Z</time>
      </trkpt>
      <trkpt lat="42.703322" lon="0.961422">
        <ele>1903.9</ele>
        <time>2018-12-02T15:27:06Z</time>
      </trkpt>
      <trkpt lat="42.703363" lon="0.961304">
        <ele>1903.2</ele>
        <time>2018-12-02T15:27:14Z</time>
      </trkpt>
      <trkpt lat="42.703417" lon="0.961213">
        <ele>1902.3</ele>
        <time>2018-12-02T15:27:22Z</time>
      </trkpt>
      <trkpt lat="42.703456" lon="0.961092">
        <ele>1901.2</ele>
        <time>2018-12-02T15:27:29Z</time>
      </trkpt>
      <trkpt lat="42.703481" lon="0.960962">
        <ele>1899.8</ele>
        <time>2018-12-02T15:27:37Z</time>
      </trkpt>
      <trkpt lat="42.703503" lon="0.960835">
        <ele>1898.2</ele>
        <time>2018-12-02T15:27:45Z</time>
      </trkpt>
      <trkpt lat="42.703536" lon="0.960710">
        <ele>1896.7</ele>
        <time>2018-12-02T15:27:53Z</time>
      </trkpt>
      <trkpt lat="42.703563" lon="0.960592">
        <ele>1895.6</ele>
        <time>2018-12-02T15:28:01Z</time>
      </trkpt>
      <trkpt lat="42.703601" lon="0.960478">
        <ele>1894.5</ele>
        <time>2018-12-02T15:28:09Z</time>
      </trkpt>
      <trkpt lat="42.703636" lon="0.960365">
        <ele>1893.5</ele>
        <time>2018-12-02T15:28:16Z</time>
      </trkpt>
      <trkpt lat="42.703688" lon="0.960257">
        <ele>1892.1</ele>
        <time>2018-12-02T15:28:24Z</time>
      </trkpt>
      <trkpt lat="42.703733" lon="0.960141">
        <ele>1890.1</ele>
        <time>2018-12-02T15:28:32Z</time>
      </trkpt>
      <trkpt lat="42.703771" lon="0.960014">
        <ele>1888.6</ele>
        <time>2018-12-02T15:28:40Z</time>
      </trkpt>
      <trkpt lat="42.703812" lon="0.959903">
        <ele>1887.5</ele>
        <time>2018-12-02T15:28:47Z</time>
      </trkpt>
      <trkpt lat="42.703851" lon="0.959781">
        <ele>1885.5</ele>
        <time>2018-12-02T15:28:54Z</time>
      </trkpt>
      <trkpt lat="42.703913" lon="0.959695">
        <ele>1883.5</ele>
        <time>2018-12-02T15:29:01Z</time>
      </trkpt>
      <trkpt lat="42.703980" lon="0.959591">
        <ele>1881.1</ele>
        <time>2018-12-02T15:29:09Z</time>
      </trkpt>
      <trkpt lat="42.704050" lon="0.959493">
        <ele>1878.1</ele>
        <time>2018-12-02T15:29:17Z</time>
      </trkpt>
      <trkpt lat="42.704129" lon="0.959399">
        <ele>1875.5</ele>
        <time>2018-12-02T15:29:24Z</time>
      </trkpt>
      <trkpt lat="42.704200" lon="0.959310">
        <ele>1873.3</ele>
        <time>2018-12-02T15:29:32Z</time>
      </trkpt>
      <trkpt lat="42.704273" lon="0.959226">
        <ele>1872.0</ele>
        <time>2018-12-02T15:29:41Z</time>
      </trkpt>
      <trkpt lat="42.704349" lon="0.959145">
        <ele>1870.9</ele>
        <time>2018-12-02T15:29:48Z</time>
      </trkpt>
      <trkpt lat="42.704426" lon="0.959065">
        <ele>1869.7</ele>
        <time>2018-12-02T15:29:57Z</time>
      </trkpt>
      <trkpt lat="42.704502" lon="0.958983">
        <ele>1869.1</ele>
        <time>2018-12-02T15:30:06Z</time>
      </trkpt>
      <trkpt lat="42.704581" lon="0.958905">
        <ele>1868.9</ele>
        <time>2018-12-02T15:30:14Z</time>
      </trkpt>
      <trkpt lat="42.704695" lon="0.958830">
        <ele>1869.1</ele>
        <time>2018-12-02T15:30:24Z</time>
      </trkpt>
      <trkpt lat="42.704780" lon="0.958789">
        <ele>1868.7</ele>
        <time>2018-12-02T15:30:31Z</time>
      </trkpt>
      <trkpt lat="42.704871" lon="0.958752">
        <ele>1867.1</ele>
        <time>2018-12-02T15:30:39Z</time>
      </trkpt>
      <trkpt lat="42.704951" lon="0.958705">
        <ele>1866.3</ele>
        <time>2018-12-02T15:30:46Z</time>
      </trkpt>
      <trkpt lat="42.705030" lon="0.958637">
        <ele>1865.5</ele>
        <time>2018-12-02T15:30:55Z</time>
      </trkpt>
      <trkpt lat="42.705101" lon="0.958563">
        <ele>1864.9</ele>
        <time>2018-12-02T15:31:02Z</time>
      </trkpt>
      <trkpt lat="42.705173" lon="0.958497">
        <ele>1864.1</ele>
        <time>2018-12-02T15:31:09Z</time>
      </trkpt>
      <trkpt lat="42.705241" lon="0.958432">
        <ele>1863.5</ele>
        <time>2018-12-02T15:31:16Z</time>
      </trkpt>
      <trkpt lat="42.705308" lon="0.958367">
        <ele>1862.3</ele>
        <time>2018-12-02T15:31:24Z</time>
      </trkpt>
      <trkpt lat="42.705387" lon="0.958307">
        <ele>1861.6</ele>
        <time>2018-12-02T15:31:31Z</time>
      </trkpt>
      <trkpt lat="42.705463" lon="0.958228">
        <ele>1861.4</ele>
        <time>2018-12-02T15:31:39Z</time>
      </trkpt>
      <trkpt lat="42.705539" lon="0.958168">
        <ele>1861.2</ele>
        <time>2018-12-02T15:31:46Z</time>
      </trkpt>
      <trkpt lat="42.705620" lon="0.958075">
        <ele>1861.2</ele>
        <time>2018-12-02T15:31:55Z</time>
      </trkpt>
      <trkpt lat="42.705695" lon="0.957993">
        <ele>1861.2</ele>
        <time>2018-12-02T15:32:03Z</time>
      </trkpt>
      <trkpt lat="42.705776" lon="0.957919">
        <ele>1860.9</ele>
        <time>2018-12-02T15:32:12Z</time>
      </trkpt>
      <trkpt lat="42.705831" lon="0.957826">
        <ele>1861.0</ele>
        <time>2018-12-02T15:32:20Z</time>
      </trkpt>
      <trkpt lat="42.705870" lon="0.957711">
        <ele>1861.1</ele>
        <time>2018-12-02T15:32:29Z</time>
      </trkpt>
      <trkpt lat="42.705899" lon="0.957598">
        <ele>1861.1</ele>
        <time>2018-12-02T15:32:36Z</time>
      </trkpt>
      <trkpt lat="42.705947" lon="0.957474">
        <ele>1861.2</ele>
        <time>2018-12-02T15:32:44Z</time>
      </trkpt>
      <trkpt lat="42.705983" lon="0.957353">
        <ele>1861.4</ele>
        <time>2018-12-02T15:32:52Z</time>
      </trkpt>
      <trkpt lat="42.706043" lon="0.957253">
        <ele>1861.5</ele>
        <time>2018-12-02T15:33:01Z</time>
      </trkpt>
      <trkpt lat="42.706078" lon="0.957128">
        <ele>1862.1</ele>
        <time>2018-12-02T15:33:11Z</time>
      </trkpt>
      <trkpt lat="42.706095" lon="0.957025">
        <ele>1863.3</ele>
        <time>2018-12-02T15:33:22Z</time>
      </trkpt>
      <trkpt lat="42.706113" lon="0.956900">
        <ele>1865.2</ele>
        <time>2018-12-02T15:33:35Z</time>
      </trkpt>
      <trkpt lat="42.706101" lon="0.956786">
        <ele>1866.7</ele>
        <time>2018-12-02T15:33:53Z</time>
      </trkpt>
      <trkpt lat="42.706152" lon="0.956712">
        <ele>1867.5</ele>
        <time>2018-12-02T15:34:25Z</time>
      </trkpt>
      <trkpt lat="42.706161" lon="0.956592">
        <ele>1867.8</ele>
        <time>2018-12-02T15:34:44Z</time>
      </trkpt>
      <trkpt lat="42.706181" lon="0.956474">
        <ele>1868.4</ele>
        <time>2018-12-02T15:34:58Z</time>
      </trkpt>
      <trkpt lat="42.706261" lon="0.956345">
        <ele>1868.7</ele>
        <time>2018-12-02T15:35:09Z</time>
      </trkpt>
    </trkseg>
  </trk>
</gpx>

